<?xml version="1.0" encoding="utf-8"?>
<gpx xmlns:xsi="http://www.w3.org/2001/XMLSchema-instance" xmlns:xsd="http://www.w3.org/2001/XMLSchema" version="1.1" creator="Shapelink.com" xmlns="http://www.topografix.com/GPX/1/1" xmlns:gpxtpx="http://www.garmin.com/xmlschemas/TrackPointExtension/v1">
  <metadata>
    <name>Sykling 42.13 km, 2012-07-20</name>
    <desc></desc>
    <author><name>Mikael Blom</name></author> 
    <time>2012-07-20T17:33:38Z</time>
  </metadata>
  <trk>
    <name>Sykling 42.13 km, 2012-07-20</name>
    <trkseg>
      <trkpt lat="59.9788079" lon="17.7392636">
        <ele>36.6675</ele>
        <time>2012-07-20T17:33:38Z</time>
      </trkpt>
      <trkpt lat="59.9784647" lon="17.7391678">
        <ele>27.5349</ele>
        <time>2012-07-20T17:33:45Z</time>
      </trkpt>
      <trkpt lat="59.9782662" lon="17.739129">
        <ele>22.7283</ele>
        <time>2012-07-20T17:33:49Z</time>
      </trkpt>
      <trkpt lat="59.9781283" lon="17.7390878">
        <ele>23.209</ele>
        <time>2012-07-20T17:33:52Z</time>
      </trkpt>
      <trkpt lat="59.9777835" lon="17.7388973">
        <ele>21.767</ele>
        <time>2012-07-20T17:33:59Z</time>
      </trkpt>
      <trkpt lat="59.9774712" lon="17.7389057">
        <ele>18.4023</ele>
        <time>2012-07-20T17:34:04Z</time>
      </trkpt>
      <trkpt lat="59.9768353" lon="17.7392158">
        <ele>15.0377</ele>
        <time>2012-07-20T17:34:12Z</time>
      </trkpt>
      <trkpt lat="59.9765987" lon="17.7393386">
        <ele>15.0377</ele>
        <time>2012-07-20T17:34:15Z</time>
      </trkpt>
      <trkpt lat="59.976303" lon="17.7397962">
        <ele>15.0377</ele>
        <time>2012-07-20T17:34:20Z</time>
      </trkpt>
      <trkpt lat="59.9762159" lon="17.7400417">
        <ele>16.4797</ele>
        <time>2012-07-20T17:34:22Z</time>
      </trkpt>
      <trkpt lat="59.975831" lon="17.7413436">
        <ele>12.1538</ele>
        <time>2012-07-20T17:34:32Z</time>
      </trkpt>
      <trkpt lat="59.9755328" lon="17.7424971">
        <ele>14.557</ele>
        <time>2012-07-20T17:34:41Z</time>
      </trkpt>
      <trkpt lat="59.9752851" lon="17.7435688">
        <ele>16.9604</ele>
        <time>2012-07-20T17:34:49Z</time>
      </trkpt>
      <trkpt lat="59.9750793" lon="17.7445417">
        <ele>14.0764</ele>
        <time>2012-07-20T17:34:56Z</time>
      </trkpt>
      <trkpt lat="59.9748302" lon="17.745328">
        <ele>13.5958</ele>
        <time>2012-07-20T17:35:02Z</time>
      </trkpt>
      <trkpt lat="59.9745423" lon="17.7459517">
        <ele>17.4412</ele>
        <time>2012-07-20T17:35:08Z</time>
      </trkpt>
      <trkpt lat="59.9741844" lon="17.746471">
        <ele>17.4412</ele>
        <time>2012-07-20T17:35:14Z</time>
      </trkpt>
      <trkpt lat="59.9737188" lon="17.7470533">
        <ele>17.9218</ele>
        <time>2012-07-20T17:35:21Z</time>
      </trkpt>
      <trkpt lat="59.9732528" lon="17.7475062">
        <ele>17.4412</ele>
        <time>2012-07-20T17:35:28Z</time>
      </trkpt>
      <trkpt lat="59.9727705" lon="17.7481662">
        <ele>15.5184</ele>
        <time>2012-07-20T17:35:35Z</time>
      </trkpt>
      <trkpt lat="59.9725206" lon="17.7487204">
        <ele>13.1151</ele>
        <time>2012-07-20T17:35:40Z</time>
      </trkpt>
      <trkpt lat="59.9723979" lon="17.7490141">
        <ele>12.1538</ele>
        <time>2012-07-20T17:35:43Z</time>
      </trkpt>
      <trkpt lat="59.9721569" lon="17.7495632">
        <ele>10.7118</ele>
        <time>2012-07-20T17:35:49Z</time>
      </trkpt>
      <trkpt lat="59.9721215" lon="17.749648">
        <ele>9.75061</ele>
        <time>2012-07-20T17:35:50Z</time>
      </trkpt>
      <trkpt lat="59.9719381" lon="17.7500324">
        <ele>5.90527</ele>
        <time>2012-07-20T17:35:54Z</time>
      </trkpt>
      <trkpt lat="59.9718879" lon="17.7501424">
        <ele>6.38586</ele>
        <time>2012-07-20T17:35:55Z</time>
      </trkpt>
      <trkpt lat="59.9714721" lon="17.7508364">
        <ele>3.98267</ele>
        <time>2012-07-20T17:36:02Z</time>
      </trkpt>
      <trkpt lat="59.9709806" lon="17.751427">
        <ele>3.50195</ele>
        <time>2012-07-20T17:36:09Z</time>
      </trkpt>
      <trkpt lat="59.9706311" lon="17.7519383">
        <ele>4.46326</ele>
        <time>2012-07-20T17:36:14Z</time>
      </trkpt>
      <trkpt lat="59.9703561" lon="17.7525989">
        <ele>2.54065</ele>
        <time>2012-07-20T17:36:19Z</time>
      </trkpt>
      <trkpt lat="59.9699728" lon="17.7537373">
        <ele>0</ele>
        <time>2012-07-20T17:36:27Z</time>
      </trkpt>
      <trkpt lat="59.9696325" lon="17.754418">
        <ele>0.618042</ele>
        <time>2012-07-20T17:36:33Z</time>
      </trkpt>
      <trkpt lat="59.9692534" lon="17.755199">
        <ele>5.42456</ele>
        <time>2012-07-20T17:36:40Z</time>
      </trkpt>
      <trkpt lat="59.9689364" lon="17.7558486">
        <ele>7.34717</ele>
        <time>2012-07-20T17:36:46Z</time>
      </trkpt>
      <trkpt lat="59.9685666" lon="17.7565501">
        <ele>9.75061</ele>
        <time>2012-07-20T17:36:53Z</time>
      </trkpt>
      <trkpt lat="59.9682063" lon="17.7570832">
        <ele>10.7118</ele>
        <time>2012-07-20T17:36:59Z</time>
      </trkpt>
      <trkpt lat="59.9677844" lon="17.7576428">
        <ele>8.78918</ele>
        <time>2012-07-20T17:37:05Z</time>
      </trkpt>
      <trkpt lat="59.9673003" lon="17.758188">
        <ele>7.82788</ele>
        <time>2012-07-20T17:37:11Z</time>
      </trkpt>
      <trkpt lat="59.9668048" lon="17.7586018">
        <ele>10.2312</ele>
        <time>2012-07-20T17:37:17Z</time>
      </trkpt>
      <trkpt lat="59.9663506" lon="17.7590703">
        <ele>11.1925</ele>
        <time>2012-07-20T17:37:23Z</time>
      </trkpt>
      <trkpt lat="59.9659176" lon="17.7597853">
        <ele>8.78918</ele>
        <time>2012-07-20T17:37:29Z</time>
      </trkpt>
      <trkpt lat="59.9654901" lon="17.7604336">
        <ele>12.1538</ele>
        <time>2012-07-20T17:37:35Z</time>
      </trkpt>
      <trkpt lat="59.965205" lon="17.7611043">
        <ele>10.2312</ele>
        <time>2012-07-20T17:37:40Z</time>
      </trkpt>
      <trkpt lat="59.9649007" lon="17.7619354">
        <ele>7.82788</ele>
        <time>2012-07-20T17:37:46Z</time>
      </trkpt>
      <trkpt lat="59.9645603" lon="17.7629678">
        <ele>7.82788</ele>
        <time>2012-07-20T17:37:53Z</time>
      </trkpt>
      <trkpt lat="59.9643467" lon="17.7639751">
        <ele>12.6344</ele>
        <time>2012-07-20T17:37:59Z</time>
      </trkpt>
      <trkpt lat="59.9641027" lon="17.7649694">
        <ele>18.4023</ele>
        <time>2012-07-20T17:38:07Z</time>
      </trkpt>
      <trkpt lat="59.9640278" lon="17.7653071">
        <ele>19.3638</ele>
        <time>2012-07-20T17:38:10Z</time>
      </trkpt>
      <trkpt lat="59.9639835" lon="17.765903">
        <ele>23.209</ele>
        <time>2012-07-20T17:38:16Z</time>
      </trkpt>
      <trkpt lat="59.9639459" lon="17.766407">
        <ele>25.1317</ele>
        <time>2012-07-20T17:38:22Z</time>
      </trkpt>
      <trkpt lat="59.9639462" lon="17.7665051">
        <ele>24.651</ele>
        <time>2012-07-20T17:38:23Z</time>
      </trkpt>
      <trkpt lat="59.9639323" lon="17.7671015">
        <ele>25.6123</ele>
        <time>2012-07-20T17:38:27Z</time>
      </trkpt>
      <trkpt lat="59.9639214" lon="17.7672543">
        <ele>26.0929</ele>
        <time>2012-07-20T17:38:28Z</time>
      </trkpt>
      <trkpt lat="59.9637729" lon="17.7681785">
        <ele>26.5736</ele>
        <time>2012-07-20T17:38:35Z</time>
      </trkpt>
      <trkpt lat="59.9635632" lon="17.7689722">
        <ele>26.0929</ele>
        <time>2012-07-20T17:38:41Z</time>
      </trkpt>
      <trkpt lat="59.9634393" lon="17.7694677">
        <ele>27.5349</ele>
        <time>2012-07-20T17:38:45Z</time>
      </trkpt>
      <trkpt lat="59.9633896" lon="17.7699956">
        <ele>28.4962</ele>
        <time>2012-07-20T17:38:49Z</time>
      </trkpt>
      <trkpt lat="59.9634272" lon="17.7706933">
        <ele>29.4575</ele>
        <time>2012-07-20T17:38:54Z</time>
      </trkpt>
      <trkpt lat="59.9636175" lon="17.7716192">
        <ele>28.0155</ele>
        <time>2012-07-20T17:39:00Z</time>
      </trkpt>
      <trkpt lat="59.9638164" lon="17.7726397">
        <ele>24.651</ele>
        <time>2012-07-20T17:39:07Z</time>
      </trkpt>
      <trkpt lat="59.9638084" lon="17.7732358">
        <ele>24.1703</ele>
        <time>2012-07-20T17:39:11Z</time>
      </trkpt>
      <trkpt lat="59.9636476" lon="17.7742287">
        <ele>23.6896</ele>
        <time>2012-07-20T17:39:18Z</time>
      </trkpt>
      <trkpt lat="59.9634891" lon="17.7751447">
        <ele>22.2476</ele>
        <time>2012-07-20T17:39:24Z</time>
      </trkpt>
      <trkpt lat="59.9632791" lon="17.7758329">
        <ele>21.2864</ele>
        <time>2012-07-20T17:39:29Z</time>
      </trkpt>
      <trkpt lat="59.9629208" lon="17.7770188">
        <ele>19.8444</ele>
        <time>2012-07-20T17:39:38Z</time>
      </trkpt>
      <trkpt lat="59.9626017" lon="17.7777544">
        <ele>19.8444</ele>
        <time>2012-07-20T17:39:44Z</time>
      </trkpt>
      <trkpt lat="59.9621036" lon="17.7788726">
        <ele>18.8831</ele>
        <time>2012-07-20T17:39:53Z</time>
      </trkpt>
      <trkpt lat="59.9616675" lon="17.7798278">
        <ele>18.4023</ele>
        <time>2012-07-20T17:40:01Z</time>
      </trkpt>
      <trkpt lat="59.9612564" lon="17.7806382">
        <ele>18.8831</ele>
        <time>2012-07-20T17:40:08Z</time>
      </trkpt>
      <trkpt lat="59.9606328" lon="17.7817488">
        <ele>20.325</ele>
        <time>2012-07-20T17:40:18Z</time>
      </trkpt>
      <trkpt lat="59.9603875" lon="17.7823714">
        <ele>22.7283</ele>
        <time>2012-07-20T17:40:23Z</time>
      </trkpt>
      <trkpt lat="59.9600282" lon="17.7834556">
        <ele>23.209</ele>
        <time>2012-07-20T17:40:31Z</time>
      </trkpt>
      <trkpt lat="59.9596951" lon="17.7842239">
        <ele>23.209</ele>
        <time>2012-07-20T17:40:37Z</time>
      </trkpt>
      <trkpt lat="59.9592408" lon="17.7849325">
        <ele>23.209</ele>
        <time>2012-07-20T17:40:44Z</time>
      </trkpt>
      <trkpt lat="59.958857" lon="17.7852851">
        <ele>22.7283</ele>
        <time>2012-07-20T17:40:49Z</time>
      </trkpt>
      <trkpt lat="59.9584061" lon="17.7857334">
        <ele>22.2476</ele>
        <time>2012-07-20T17:40:55Z</time>
      </trkpt>
      <trkpt lat="59.9578219" lon="17.7864166">
        <ele>21.767</ele>
        <time>2012-07-20T17:41:03Z</time>
      </trkpt>
      <trkpt lat="59.957635" lon="17.7868786">
        <ele>22.2476</ele>
        <time>2012-07-20T17:41:07Z</time>
      </trkpt>
      <trkpt lat="59.9576066" lon="17.7870149">
        <ele>22.2476</ele>
        <time>2012-07-20T17:41:08Z</time>
      </trkpt>
      <trkpt lat="59.9573609" lon="17.7880083">
        <ele>20.8057</ele>
        <time>2012-07-20T17:41:15Z</time>
      </trkpt>
      <trkpt lat="59.9572356" lon="17.7884073">
        <ele>20.325</ele>
        <time>2012-07-20T17:41:18Z</time>
      </trkpt>
      <trkpt lat="59.9570202" lon="17.7888911">
        <ele>20.325</ele>
        <time>2012-07-20T17:41:22Z</time>
      </trkpt>
      <trkpt lat="59.9567026" lon="17.7893841">
        <ele>21.2864</ele>
        <time>2012-07-20T17:41:27Z</time>
      </trkpt>
      <trkpt lat="59.9565217" lon="17.78988">
        <ele>22.2476</ele>
        <time>2012-07-20T17:41:31Z</time>
      </trkpt>
      <trkpt lat="59.9565275" lon="17.7901642">
        <ele>23.209</ele>
        <time>2012-07-20T17:41:33Z</time>
      </trkpt>
      <trkpt lat="59.9565552" lon="17.7903214">
        <ele>23.209</ele>
        <time>2012-07-20T17:41:34Z</time>
      </trkpt>
      <trkpt lat="59.956687" lon="17.7910868">
        <ele>26.0929</ele>
        <time>2012-07-20T17:41:40Z</time>
      </trkpt>
      <trkpt lat="59.9566585" lon="17.7916185">
        <ele>26.5736</ele>
        <time>2012-07-20T17:41:44Z</time>
      </trkpt>
      <trkpt lat="59.9564363" lon="17.7929399">
        <ele>25.6123</ele>
        <time>2012-07-20T17:41:53Z</time>
      </trkpt>
      <trkpt lat="59.9561725" lon="17.7941959">
        <ele>23.6896</ele>
        <time>2012-07-20T17:42:01Z</time>
      </trkpt>
      <trkpt lat="59.9558759" lon="17.7954751">
        <ele>22.7283</ele>
        <time>2012-07-20T17:42:09Z</time>
      </trkpt>
      <trkpt lat="59.9556047" lon="17.7968858">
        <ele>21.767</ele>
        <time>2012-07-20T17:42:18Z</time>
      </trkpt>
      <trkpt lat="59.9553205" lon="17.7978722">
        <ele>23.209</ele>
        <time>2012-07-20T17:42:25Z</time>
      </trkpt>
      <trkpt lat="59.9550152" lon="17.7987035">
        <ele>25.1317</ele>
        <time>2012-07-20T17:42:32Z</time>
      </trkpt>
      <trkpt lat="59.9547045" lon="17.7992725">
        <ele>24.651</ele>
        <time>2012-07-20T17:42:38Z</time>
      </trkpt>
      <trkpt lat="59.9543803" lon="17.8000009">
        <ele>23.209</ele>
        <time>2012-07-20T17:42:44Z</time>
      </trkpt>
      <trkpt lat="59.9541253" lon="17.8006334">
        <ele>24.1703</ele>
        <time>2012-07-20T17:42:49Z</time>
      </trkpt>
      <trkpt lat="59.953839" lon="17.8013254">
        <ele>26.0929</ele>
        <time>2012-07-20T17:42:55Z</time>
      </trkpt>
      <trkpt lat="59.953723" lon="17.8016489">
        <ele>27.5349</ele>
        <time>2012-07-20T17:42:58Z</time>
      </trkpt>
      <trkpt lat="59.9535462" lon="17.8024167">
        <ele>29.4575</ele>
        <time>2012-07-20T17:43:05Z</time>
      </trkpt>
      <trkpt lat="59.9535261" lon="17.8025328">
        <ele>29.4575</ele>
        <time>2012-07-20T17:43:06Z</time>
      </trkpt>
      <trkpt lat="59.9534599" lon="17.8028446">
        <ele>30.4188</ele>
        <time>2012-07-20T17:43:09Z</time>
      </trkpt>
      <trkpt lat="59.9532417" lon="17.8035231">
        <ele>30.8995</ele>
        <time>2012-07-20T17:43:16Z</time>
      </trkpt>
      <trkpt lat="59.952975" lon="17.8041325">
        <ele>29.4575</ele>
        <time>2012-07-20T17:43:22Z</time>
      </trkpt>
      <trkpt lat="59.9529204" lon="17.8042667">
        <ele>29.4575</ele>
        <time>2012-07-20T17:43:23Z</time>
      </trkpt>
      <trkpt lat="59.952751" lon="17.8050571">
        <ele>26.5736</ele>
        <time>2012-07-20T17:43:28Z</time>
      </trkpt>
      <trkpt lat="59.9525988" lon="17.8061465">
        <ele>23.209</ele>
        <time>2012-07-20T17:43:35Z</time>
      </trkpt>
      <trkpt lat="59.9523659" lon="17.8071841">
        <ele>20.325</ele>
        <time>2012-07-20T17:43:42Z</time>
      </trkpt>
      <trkpt lat="59.9519819" lon="17.8086393">
        <ele>17.9218</ele>
        <time>2012-07-20T17:43:51Z</time>
      </trkpt>
      <trkpt lat="59.9515419" lon="17.8103165">
        <ele>17.4412</ele>
        <time>2012-07-20T17:44:01Z</time>
      </trkpt>
      <trkpt lat="59.9513593" lon="17.8113696">
        <ele>16.9604</ele>
        <time>2012-07-20T17:44:07Z</time>
      </trkpt>
      <trkpt lat="59.95129" lon="17.8122906">
        <ele>16.4797</ele>
        <time>2012-07-20T17:44:12Z</time>
      </trkpt>
      <trkpt lat="59.9512763" lon="17.8137975">
        <ele>15.5184</ele>
        <time>2012-07-20T17:44:20Z</time>
      </trkpt>
      <trkpt lat="59.9512526" lon="17.815236">
        <ele>18.4023</ele>
        <time>2012-07-20T17:44:28Z</time>
      </trkpt>
      <trkpt lat="59.95115" lon="17.8166522">
        <ele>18.4023</ele>
        <time>2012-07-20T17:44:36Z</time>
      </trkpt>
      <trkpt lat="59.9509562" lon="17.8185026">
        <ele>19.3638</ele>
        <time>2012-07-20T17:44:47Z</time>
      </trkpt>
      <trkpt lat="59.9509056" lon="17.8195246">
        <ele>18.8831</ele>
        <time>2012-07-20T17:44:53Z</time>
      </trkpt>
      <trkpt lat="59.9508351" lon="17.8209658">
        <ele>18.8831</ele>
        <time>2012-07-20T17:45:01Z</time>
      </trkpt>
      <trkpt lat="59.950693" lon="17.8223995">
        <ele>16.9604</ele>
        <time>2012-07-20T17:45:09Z</time>
      </trkpt>
      <trkpt lat="59.9505616" lon="17.8235992">
        <ele>16.9604</ele>
        <time>2012-07-20T17:45:16Z</time>
      </trkpt>
      <trkpt lat="59.9503741" lon="17.8245611">
        <ele>16.4797</ele>
        <time>2012-07-20T17:45:22Z</time>
      </trkpt>
      <trkpt lat="59.95007" lon="17.8260039">
        <ele>14.557</ele>
        <time>2012-07-20T17:45:31Z</time>
      </trkpt>
      <trkpt lat="59.949969" lon="17.8268953">
        <ele>14.0764</ele>
        <time>2012-07-20T17:45:36Z</time>
      </trkpt>
      <trkpt lat="59.9499555" lon="17.8279708">
        <ele>13.5958</ele>
        <time>2012-07-20T17:45:42Z</time>
      </trkpt>
      <trkpt lat="59.9499649" lon="17.8290755">
        <ele>15.5184</ele>
        <time>2012-07-20T17:45:49Z</time>
      </trkpt>
      <trkpt lat="59.9499563" lon="17.8292156">
        <ele>15.5184</ele>
        <time>2012-07-20T17:45:50Z</time>
      </trkpt>
      <trkpt lat="59.9498729" lon="17.8296475">
        <ele>15.0377</ele>
        <time>2012-07-20T17:45:54Z</time>
      </trkpt>
      <trkpt lat="59.9497572" lon="17.8296218">
        <ele>16.4797</ele>
        <time>2012-07-20T17:45:57Z</time>
      </trkpt>
      <trkpt lat="59.9494561" lon="17.8290807">
        <ele>16.4797</ele>
        <time>2012-07-20T17:46:04Z</time>
      </trkpt>
      <trkpt lat="59.949036" lon="17.8285945">
        <ele>17.9218</ele>
        <time>2012-07-20T17:46:11Z</time>
      </trkpt>
      <trkpt lat="59.9484792" lon="17.8280018">
        <ele>20.325</ele>
        <time>2012-07-20T17:46:20Z</time>
      </trkpt>
      <trkpt lat="59.9477917" lon="17.8272845">
        <ele>18.4023</ele>
        <time>2012-07-20T17:46:31Z</time>
      </trkpt>
      <trkpt lat="59.9473192" lon="17.8267921">
        <ele>17.4412</ele>
        <time>2012-07-20T17:46:38Z</time>
      </trkpt>
      <trkpt lat="59.9466144" lon="17.8260572">
        <ele>17.9218</ele>
        <time>2012-07-20T17:46:49Z</time>
      </trkpt>
      <trkpt lat="59.9458306" lon="17.825243">
        <ele>19.3638</ele>
        <time>2012-07-20T17:47:02Z</time>
      </trkpt>
      <trkpt lat="59.9451658" lon="17.8245456">
        <ele>20.325</ele>
        <time>2012-07-20T17:47:13Z</time>
      </trkpt>
      <trkpt lat="59.9446914" lon="17.8240354">
        <ele>20.325</ele>
        <time>2012-07-20T17:47:21Z</time>
      </trkpt>
      <trkpt lat="59.9441782" lon="17.8234559">
        <ele>19.8444</ele>
        <time>2012-07-20T17:47:30Z</time>
      </trkpt>
      <trkpt lat="59.9436302" lon="17.8227783">
        <ele>17.4412</ele>
        <time>2012-07-20T17:47:39Z</time>
      </trkpt>
      <trkpt lat="59.9430914" lon="17.8221209">
        <ele>15.999</ele>
        <time>2012-07-20T17:47:47Z</time>
      </trkpt>
      <trkpt lat="59.9424408" lon="17.8213267">
        <ele>15.0377</ele>
        <time>2012-07-20T17:47:56Z</time>
      </trkpt>
      <trkpt lat="59.9417315" lon="17.820459">
        <ele>14.0764</ele>
        <time>2012-07-20T17:48:05Z</time>
      </trkpt>
      <trkpt lat="59.9411404" lon="17.8197214">
        <ele>15.999</ele>
        <time>2012-07-20T17:48:13Z</time>
      </trkpt>
      <trkpt lat="59.9407125" lon="17.81919">
        <ele>18.4023</ele>
        <time>2012-07-20T17:48:20Z</time>
      </trkpt>
      <trkpt lat="59.9403645" lon="17.8187422">
        <ele>20.325</ele>
        <time>2012-07-20T17:48:27Z</time>
      </trkpt>
      <trkpt lat="59.9400198" lon="17.8183203">
        <ele>22.2476</ele>
        <time>2012-07-20T17:48:35Z</time>
      </trkpt>
      <trkpt lat="59.9397681" lon="17.8180198">
        <ele>23.6896</ele>
        <time>2012-07-20T17:48:42Z</time>
      </trkpt>
      <trkpt lat="59.9396134" lon="17.8178639">
        <ele>24.651</ele>
        <time>2012-07-20T17:48:48Z</time>
      </trkpt>
      <trkpt lat="59.9396024" lon="17.8178664">
        <ele>23.6896</ele>
        <time>2012-07-20T17:48:53Z</time>
      </trkpt>
      <trkpt lat="59.9395749" lon="17.8178508">
        <ele>22.7283</ele>
        <time>2012-07-20T17:49:01Z</time>
      </trkpt>
      <trkpt lat="59.9395032" lon="17.8179699">
        <ele>22.7283</ele>
        <time>2012-07-20T17:49:05Z</time>
      </trkpt>
      <trkpt lat="59.9393335" lon="17.8184353">
        <ele>21.2864</ele>
        <time>2012-07-20T17:49:10Z</time>
      </trkpt>
      <trkpt lat="59.9389426" lon="17.8192511">
        <ele>22.2476</ele>
        <time>2012-07-20T17:49:18Z</time>
      </trkpt>
      <trkpt lat="59.9384623" lon="17.8202947">
        <ele>21.767</ele>
        <time>2012-07-20T17:49:27Z</time>
      </trkpt>
      <trkpt lat="59.9380848" lon="17.8211242">
        <ele>19.8444</ele>
        <time>2012-07-20T17:49:33Z</time>
      </trkpt>
      <trkpt lat="59.9377149" lon="17.8220464">
        <ele>18.8831</ele>
        <time>2012-07-20T17:49:39Z</time>
      </trkpt>
      <trkpt lat="59.9371953" lon="17.8234176">
        <ele>17.9218</ele>
        <time>2012-07-20T17:49:48Z</time>
      </trkpt>
      <trkpt lat="59.9368968" lon="17.8241358">
        <ele>17.4412</ele>
        <time>2012-07-20T17:49:53Z</time>
      </trkpt>
      <trkpt lat="59.93651" lon="17.8246839">
        <ele>17.4412</ele>
        <time>2012-07-20T17:49:58Z</time>
      </trkpt>
      <trkpt lat="59.9363324" lon="17.8247883">
        <ele>17.4412</ele>
        <time>2012-07-20T17:50:00Z</time>
      </trkpt>
      <trkpt lat="59.9354319" lon="17.8251544">
        <ele>16.4797</ele>
        <time>2012-07-20T17:50:10Z</time>
      </trkpt>
      <trkpt lat="59.9345768" lon="17.8255232">
        <ele>17.4412</ele>
        <time>2012-07-20T17:50:20Z</time>
      </trkpt>
      <trkpt lat="59.9338061" lon="17.8258681">
        <ele>18.8831</ele>
        <time>2012-07-20T17:50:30Z</time>
      </trkpt>
      <trkpt lat="59.9332394" lon="17.8263472">
        <ele>18.8831</ele>
        <time>2012-07-20T17:50:38Z</time>
      </trkpt>
      <trkpt lat="59.9328373" lon="17.8269556">
        <ele>18.4023</ele>
        <time>2012-07-20T17:50:44Z</time>
      </trkpt>
      <trkpt lat="59.9324043" lon="17.8277323">
        <ele>18.8831</ele>
        <time>2012-07-20T17:50:51Z</time>
      </trkpt>
      <trkpt lat="59.9320426" lon="17.8285951">
        <ele>19.8444</ele>
        <time>2012-07-20T17:50:58Z</time>
      </trkpt>
      <trkpt lat="59.9317869" lon="17.8295217">
        <ele>21.2864</ele>
        <time>2012-07-20T17:51:05Z</time>
      </trkpt>
      <trkpt lat="59.9315656" lon="17.8302709">
        <ele>23.6896</ele>
        <time>2012-07-20T17:51:12Z</time>
      </trkpt>
      <trkpt lat="59.9313304" lon="17.8308768">
        <ele>22.7283</ele>
        <time>2012-07-20T17:51:18Z</time>
      </trkpt>
      <trkpt lat="59.9309177" lon="17.8316246">
        <ele>22.2476</ele>
        <time>2012-07-20T17:51:26Z</time>
      </trkpt>
      <trkpt lat="59.9304282" lon="17.8323521">
        <ele>22.2476</ele>
        <time>2012-07-20T17:51:35Z</time>
      </trkpt>
      <trkpt lat="59.9300172" lon="17.8330171">
        <ele>21.767</ele>
        <time>2012-07-20T17:51:42Z</time>
      </trkpt>
      <trkpt lat="59.9294868" lon="17.8338911">
        <ele>22.7283</ele>
        <time>2012-07-20T17:51:51Z</time>
      </trkpt>
      <trkpt lat="59.9289886" lon="17.8345773">
        <ele>22.2476</ele>
        <time>2012-07-20T17:51:59Z</time>
      </trkpt>
      <trkpt lat="59.9284755" lon="17.8352886">
        <ele>21.767</ele>
        <time>2012-07-20T17:52:07Z</time>
      </trkpt>
      <trkpt lat="59.9279142" lon="17.8361414">
        <ele>22.2476</ele>
        <time>2012-07-20T17:52:16Z</time>
      </trkpt>
      <trkpt lat="59.9274121" lon="17.8368843">
        <ele>21.2864</ele>
        <time>2012-07-20T17:52:24Z</time>
      </trkpt>
      <trkpt lat="59.9270812" lon="17.8373277">
        <ele>19.8444</ele>
        <time>2012-07-20T17:52:29Z</time>
      </trkpt>
      <trkpt lat="59.9270126" lon="17.8374074">
        <ele>19.8444</ele>
        <time>2012-07-20T17:52:30Z</time>
      </trkpt>
      <trkpt lat="59.9266347" lon="17.837728">
        <ele>18.8831</ele>
        <time>2012-07-20T17:52:35Z</time>
      </trkpt>
      <trkpt lat="59.9263306" lon="17.8381881">
        <ele>16.9604</ele>
        <time>2012-07-20T17:52:39Z</time>
      </trkpt>
      <trkpt lat="59.9259942" lon="17.8389224">
        <ele>15.999</ele>
        <time>2012-07-20T17:52:44Z</time>
      </trkpt>
      <trkpt lat="59.9256563" lon="17.8392844">
        <ele>15.5184</ele>
        <time>2012-07-20T17:52:48Z</time>
      </trkpt>
      <trkpt lat="59.9254716" lon="17.8392835">
        <ele>16.4797</ele>
        <time>2012-07-20T17:52:50Z</time>
      </trkpt>
      <trkpt lat="59.9247492" lon="17.8392883">
        <ele>15.999</ele>
        <time>2012-07-20T17:52:58Z</time>
      </trkpt>
      <trkpt lat="59.9240206" lon="17.8394782">
        <ele>14.557</ele>
        <time>2012-07-20T17:53:06Z</time>
      </trkpt>
      <trkpt lat="59.9232405" lon="17.8398601">
        <ele>13.5958</ele>
        <time>2012-07-20T17:53:15Z</time>
      </trkpt>
      <trkpt lat="59.9224875" lon="17.8402663">
        <ele>13.1151</ele>
        <time>2012-07-20T17:53:24Z</time>
      </trkpt>
      <trkpt lat="59.9218175" lon="17.8404916">
        <ele>12.1538</ele>
        <time>2012-07-20T17:53:32Z</time>
      </trkpt>
      <trkpt lat="59.9210769" lon="17.8406044">
        <ele>13.1151</ele>
        <time>2012-07-20T17:53:41Z</time>
      </trkpt>
      <trkpt lat="59.9204745" lon="17.8406153">
        <ele>14.0764</ele>
        <time>2012-07-20T17:53:49Z</time>
      </trkpt>
      <trkpt lat="59.9200778" lon="17.8406029">
        <ele>15.0377</ele>
        <time>2012-07-20T17:53:55Z</time>
      </trkpt>
      <trkpt lat="59.9195904" lon="17.8407117">
        <ele>14.0764</ele>
        <time>2012-07-20T17:54:02Z</time>
      </trkpt>
      <trkpt lat="59.9190726" lon="17.8410569">
        <ele>14.0764</ele>
        <time>2012-07-20T17:54:09Z</time>
      </trkpt>
      <trkpt lat="59.9183589" lon="17.8416452">
        <ele>13.5958</ele>
        <time>2012-07-20T17:54:19Z</time>
      </trkpt>
      <trkpt lat="59.9178523" lon="17.8421488">
        <ele>14.0764</ele>
        <time>2012-07-20T17:54:27Z</time>
      </trkpt>
      <trkpt lat="59.9174424" lon="17.8425326">
        <ele>13.5958</ele>
        <time>2012-07-20T17:54:34Z</time>
      </trkpt>
      <trkpt lat="59.9170731" lon="17.8428211">
        <ele>14.0764</ele>
        <time>2012-07-20T17:54:40Z</time>
      </trkpt>
      <trkpt lat="59.9168457" lon="17.8427756">
        <ele>12.6344</ele>
        <time>2012-07-20T17:54:44Z</time>
      </trkpt>
      <trkpt lat="59.9167909" lon="17.8427081">
        <ele>12.1538</ele>
        <time>2012-07-20T17:54:45Z</time>
      </trkpt>
      <trkpt lat="59.9163201" lon="17.8419862">
        <ele>10.7118</ele>
        <time>2012-07-20T17:54:53Z</time>
      </trkpt>
      <trkpt lat="59.9160046" lon="17.8417378">
        <ele>10.2312</ele>
        <time>2012-07-20T17:54:57Z</time>
      </trkpt>
      <trkpt lat="59.9153768" lon="17.8416607">
        <ele>11.6732</ele>
        <time>2012-07-20T17:55:04Z</time>
      </trkpt>
      <trkpt lat="59.9151939" lon="17.8416623">
        <ele>12.6344</ele>
        <time>2012-07-20T17:55:06Z</time>
      </trkpt>
      <trkpt lat="59.9148395" lon="17.8417782">
        <ele>14.0764</ele>
        <time>2012-07-20T17:55:10Z</time>
      </trkpt>
      <trkpt lat="59.9145104" lon="17.8420575">
        <ele>15.999</ele>
        <time>2012-07-20T17:55:14Z</time>
      </trkpt>
      <trkpt lat="59.9138135" lon="17.8428002">
        <ele>14.0764</ele>
        <time>2012-07-20T17:55:23Z</time>
      </trkpt>
      <trkpt lat="59.9133138" lon="17.8430841">
        <ele>13.1151</ele>
        <time>2012-07-20T17:55:29Z</time>
      </trkpt>
      <trkpt lat="59.9128671" lon="17.8432152">
        <ele>13.5958</ele>
        <time>2012-07-20T17:55:35Z</time>
      </trkpt>
      <trkpt lat="59.912556" lon="17.8434415">
        <ele>13.5958</ele>
        <time>2012-07-20T17:55:40Z</time>
      </trkpt>
      <trkpt lat="59.9120216" lon="17.8439276">
        <ele>13.1151</ele>
        <time>2012-07-20T17:55:48Z</time>
      </trkpt>
      <trkpt lat="59.9118647" lon="17.8440167">
        <ele>13.1151</ele>
        <time>2012-07-20T17:55:50Z</time>
      </trkpt>
      <trkpt lat="59.9113692" lon="17.844072">
        <ele>10.7118</ele>
        <time>2012-07-20T17:55:56Z</time>
      </trkpt>
      <trkpt lat="59.9111214" lon="17.8440305">
        <ele>10.2312</ele>
        <time>2012-07-20T17:55:59Z</time>
      </trkpt>
      <trkpt lat="59.9108354" lon="17.8438165">
        <ele>9.2699</ele>
        <time>2012-07-20T17:56:03Z</time>
      </trkpt>
      <trkpt lat="59.9104789" lon="17.8435645">
        <ele>9.75061</ele>
        <time>2012-07-20T17:56:09Z</time>
      </trkpt>
      <trkpt lat="59.9103591" lon="17.8435079">
        <ele>10.2312</ele>
        <time>2012-07-20T17:56:11Z</time>
      </trkpt>
      <trkpt lat="59.9100129" lon="17.843194">
        <ele>9.75061</ele>
        <time>2012-07-20T17:56:18Z</time>
      </trkpt>
      <trkpt lat="59.9097836" lon="17.8429481">
        <ele>8.30859</ele>
        <time>2012-07-20T17:56:23Z</time>
      </trkpt>
      <trkpt lat="59.9096683" lon="17.8425724">
        <ele>8.78918</ele>
        <time>2012-07-20T17:56:27Z</time>
      </trkpt>
      <trkpt lat="59.9096699" lon="17.8423383">
        <ele>8.78918</ele>
        <time>2012-07-20T17:56:29Z</time>
      </trkpt>
      <trkpt lat="59.9096953" lon="17.841514">
        <ele>7.82788</ele>
        <time>2012-07-20T17:56:35Z</time>
      </trkpt>
      <trkpt lat="59.9095778" lon="17.8407765">
        <ele>6.38586</ele>
        <time>2012-07-20T17:56:40Z</time>
      </trkpt>
      <trkpt lat="59.9094932" lon="17.8405174">
        <ele>7.82788</ele>
        <time>2012-07-20T17:56:42Z</time>
      </trkpt>
      <trkpt lat="59.9091244" lon="17.8394981">
        <ele>12.1538</ele>
        <time>2012-07-20T17:56:51Z</time>
      </trkpt>
      <trkpt lat="59.9089233" lon="17.8389988">
        <ele>14.557</ele>
        <time>2012-07-20T17:56:57Z</time>
      </trkpt>
      <trkpt lat="59.9088923" lon="17.8389324">
        <ele>15.0377</ele>
        <time>2012-07-20T17:56:58Z</time>
      </trkpt>
      <trkpt lat="59.9086727" lon="17.83863">
        <ele>15.999</ele>
        <time>2012-07-20T17:57:04Z</time>
      </trkpt>
      <trkpt lat="59.9085696" lon="17.8385506">
        <ele>16.4797</ele>
        <time>2012-07-20T17:57:07Z</time>
      </trkpt>
      <trkpt lat="59.908409" lon="17.8385325">
        <ele>16.4797</ele>
        <time>2012-07-20T17:57:11Z</time>
      </trkpt>
      <trkpt lat="59.9082401" lon="17.8385718">
        <ele>16.4797</ele>
        <time>2012-07-20T17:57:15Z</time>
      </trkpt>
      <trkpt lat="59.9079366" lon="17.838825">
        <ele>16.4797</ele>
        <time>2012-07-20T17:57:22Z</time>
      </trkpt>
      <trkpt lat="59.9077527" lon="17.8390578">
        <ele>14.0764</ele>
        <time>2012-07-20T17:57:27Z</time>
      </trkpt>
      <trkpt lat="59.9077206" lon="17.8390944">
        <ele>14.0764</ele>
        <time>2012-07-20T17:57:28Z</time>
      </trkpt>
      <trkpt lat="59.907692" lon="17.8391265">
        <ele>14.0764</ele>
        <time>2012-07-20T17:57:31Z</time>
      </trkpt>
      <trkpt lat="59.9076316" lon="17.8391926">
        <ele>15.5184</ele>
        <time>2012-07-20T17:57:33Z</time>
      </trkpt>
      <trkpt lat="59.9076303" lon="17.8391981">
        <ele>15.5184</ele>
        <time>2012-07-20T17:57:34Z</time>
      </trkpt>
      <trkpt lat="59.9075424" lon="17.8393523">
        <ele>17.9218</ele>
        <time>2012-07-20T17:57:59Z</time>
      </trkpt>
      <trkpt lat="59.9073575" lon="17.839499">
        <ele>21.2864</ele>
        <time>2012-07-20T17:58:03Z</time>
      </trkpt>
      <trkpt lat="59.9070226" lon="17.8397421">
        <ele>19.3638</ele>
        <time>2012-07-20T17:58:08Z</time>
      </trkpt>
      <trkpt lat="59.9064661" lon="17.8401849">
        <ele>17.4412</ele>
        <time>2012-07-20T17:58:15Z</time>
      </trkpt>
      <trkpt lat="59.9060594" lon="17.8408062">
        <ele>15.5184</ele>
        <time>2012-07-20T17:58:20Z</time>
      </trkpt>
      <trkpt lat="59.9057304" lon="17.8411281">
        <ele>13.5958</ele>
        <time>2012-07-20T17:58:24Z</time>
      </trkpt>
      <trkpt lat="59.9052607" lon="17.8412934">
        <ele>13.5958</ele>
        <time>2012-07-20T17:58:30Z</time>
      </trkpt>
      <trkpt lat="59.9051438" lon="17.8413306">
        <ele>14.557</ele>
        <time>2012-07-20T17:58:32Z</time>
      </trkpt>
      <trkpt lat="59.9049668" lon="17.8413774">
        <ele>16.9604</ele>
        <time>2012-07-20T17:58:36Z</time>
      </trkpt>
      <trkpt lat="59.9048376" lon="17.8414499">
        <ele>18.4023</ele>
        <time>2012-07-20T17:58:39Z</time>
      </trkpt>
      <trkpt lat="59.9045792" lon="17.8415743">
        <ele>20.325</ele>
        <time>2012-07-20T17:58:45Z</time>
      </trkpt>
      <trkpt lat="59.904382" lon="17.8417136">
        <ele>20.8057</ele>
        <time>2012-07-20T17:58:49Z</time>
      </trkpt>
      <trkpt lat="59.9041083" lon="17.8418372">
        <ele>18.4023</ele>
        <time>2012-07-20T17:58:54Z</time>
      </trkpt>
      <trkpt lat="59.9038521" lon="17.841713">
        <ele>14.557</ele>
        <time>2012-07-20T17:58:59Z</time>
      </trkpt>
      <trkpt lat="59.9037174" lon="17.8416064">
        <ele>16.9604</ele>
        <time>2012-07-20T17:59:02Z</time>
      </trkpt>
      <trkpt lat="59.9034558" lon="17.8412692">
        <ele>19.8444</ele>
        <time>2012-07-20T17:59:10Z</time>
      </trkpt>
      <trkpt lat="59.9034211" lon="17.8412344">
        <ele>20.8057</ele>
        <time>2012-07-20T17:59:11Z</time>
      </trkpt>
      <trkpt lat="59.9031749" lon="17.8411428">
        <ele>25.1317</ele>
        <time>2012-07-20T17:59:17Z</time>
      </trkpt>
      <trkpt lat="59.9027288" lon="17.841306">
        <ele>20.325</ele>
        <time>2012-07-20T17:59:25Z</time>
      </trkpt>
      <trkpt lat="59.9024783" lon="17.8413701">
        <ele>20.325</ele>
        <time>2012-07-20T17:59:30Z</time>
      </trkpt>
      <trkpt lat="59.9023882" lon="17.8413874">
        <ele>21.767</ele>
        <time>2012-07-20T17:59:32Z</time>
      </trkpt>
      <trkpt lat="59.902312" lon="17.8413975">
        <ele>22.2476</ele>
        <time>2012-07-20T17:59:34Z</time>
      </trkpt>
      <trkpt lat="59.9022381" lon="17.8413979">
        <ele>22.7283</ele>
        <time>2012-07-20T17:59:36Z</time>
      </trkpt>
      <trkpt lat="59.9020878" lon="17.8413748">
        <ele>20.8057</ele>
        <time>2012-07-20T17:59:40Z</time>
      </trkpt>
      <trkpt lat="59.9017682" lon="17.8413443">
        <ele>15.999</ele>
        <time>2012-07-20T17:59:46Z</time>
      </trkpt>
      <trkpt lat="59.9013864" lon="17.8413138">
        <ele>20.8057</ele>
        <time>2012-07-20T17:59:52Z</time>
      </trkpt>
      <trkpt lat="59.9010035" lon="17.8412907">
        <ele>27.5349</ele>
        <time>2012-07-20T17:59:58Z</time>
      </trkpt>
      <trkpt lat="59.9006004" lon="17.8412593">
        <ele>30.8995</ele>
        <time>2012-07-20T18:00:05Z</time>
      </trkpt>
      <trkpt lat="59.9003207" lon="17.8412593">
        <ele>35.7061</ele>
        <time>2012-07-20T18:00:11Z</time>
      </trkpt>
      <trkpt lat="59.9000286" lon="17.8412835">
        <ele>38.5901</ele>
        <time>2012-07-20T18:00:18Z</time>
      </trkpt>
      <trkpt lat="59.8999143" lon="17.8412829">
        <ele>39.0707</ele>
        <time>2012-07-20T18:00:21Z</time>
      </trkpt>
      <trkpt lat="59.8996804" lon="17.8413458">
        <ele>38.5901</ele>
        <time>2012-07-20T18:00:28Z</time>
      </trkpt>
      <trkpt lat="59.8994823" lon="17.8414696">
        <ele>40.9934</ele>
        <time>2012-07-20T18:00:35Z</time>
      </trkpt>
      <trkpt lat="59.8993039" lon="17.8416338">
        <ele>40.9934</ele>
        <time>2012-07-20T18:00:40Z</time>
      </trkpt>
      <trkpt lat="59.8990791" lon="17.8417467">
        <ele>37.6287</ele>
        <time>2012-07-20T18:00:46Z</time>
      </trkpt>
      <trkpt lat="59.8988687" lon="17.8418333">
        <ele>35.2255</ele>
        <time>2012-07-20T18:00:50Z</time>
      </trkpt>
      <trkpt lat="59.8986632" lon="17.8419279">
        <ele>32.3416</ele>
        <time>2012-07-20T18:00:53Z</time>
      </trkpt>
      <trkpt lat="59.8983634" lon="17.8420155">
        <ele>27.5349</ele>
        <time>2012-07-20T18:00:57Z</time>
      </trkpt>
      <trkpt lat="59.8979219" lon="17.8419965">
        <ele>24.651</ele>
        <time>2012-07-20T18:01:03Z</time>
      </trkpt>
      <trkpt lat="59.8973747" lon="17.842297">
        <ele>23.209</ele>
        <time>2012-07-20T18:01:10Z</time>
      </trkpt>
      <trkpt lat="59.8969574" lon="17.8426292">
        <ele>20.325</ele>
        <time>2012-07-20T18:01:15Z</time>
      </trkpt>
      <trkpt lat="59.8966591" lon="17.8427124">
        <ele>17.4412</ele>
        <time>2012-07-20T18:01:18Z</time>
      </trkpt>
      <trkpt lat="59.8962088" lon="17.8426211">
        <ele>17.9218</ele>
        <time>2012-07-20T18:01:22Z</time>
      </trkpt>
      <trkpt lat="59.8957499" lon="17.842674">
        <ele>19.3638</ele>
        <time>2012-07-20T18:01:27Z</time>
      </trkpt>
      <trkpt lat="59.8953173" lon="17.8428518">
        <ele>16.9604</ele>
        <time>2012-07-20T18:01:32Z</time>
      </trkpt>
      <trkpt lat="59.8948843" lon="17.8429404">
        <ele>13.1151</ele>
        <time>2012-07-20T18:01:37Z</time>
      </trkpt>
      <trkpt lat="59.8947983" lon="17.8429264">
        <ele>13.1151</ele>
        <time>2012-07-20T18:01:38Z</time>
      </trkpt>
      <trkpt lat="59.8941812" lon="17.842828">
        <ele>15.5184</ele>
        <time>2012-07-20T18:01:45Z</time>
      </trkpt>
      <trkpt lat="59.8938213" lon="17.8428223">
        <ele>13.5958</ele>
        <time>2012-07-20T18:01:49Z</time>
      </trkpt>
      <trkpt lat="59.8932682" lon="17.8426765">
        <ele>16.4797</ele>
        <time>2012-07-20T18:01:56Z</time>
      </trkpt>
      <trkpt lat="59.8928051" lon="17.8424813">
        <ele>22.2476</ele>
        <time>2012-07-20T18:02:03Z</time>
      </trkpt>
      <trkpt lat="59.8924906" lon="17.8423186">
        <ele>25.6123</ele>
        <time>2012-07-20T18:02:09Z</time>
      </trkpt>
      <trkpt lat="59.8921472" lon="17.8421579">
        <ele>24.651</ele>
        <time>2012-07-20T18:02:15Z</time>
      </trkpt>
      <trkpt lat="59.8918164" lon="17.8420756">
        <ele>29.9381</ele>
        <time>2012-07-20T18:02:21Z</time>
      </trkpt>
      <trkpt lat="59.8915498" lon="17.8419735">
        <ele>29.4575</ele>
        <time>2012-07-20T18:02:26Z</time>
      </trkpt>
      <trkpt lat="59.8912126" lon="17.8417379">
        <ele>24.1703</ele>
        <time>2012-07-20T18:02:32Z</time>
      </trkpt>
      <trkpt lat="59.8908099" lon="17.8413048">
        <ele>24.651</ele>
        <time>2012-07-20T18:02:39Z</time>
      </trkpt>
      <trkpt lat="59.8904692" lon="17.8408014">
        <ele>25.6123</ele>
        <time>2012-07-20T18:02:45Z</time>
      </trkpt>
      <trkpt lat="59.8901999" lon="17.8406738">
        <ele>27.5349</ele>
        <time>2012-07-20T18:02:49Z</time>
      </trkpt>
      <trkpt lat="59.8900092" lon="17.8408861">
        <ele>27.0543</ele>
        <time>2012-07-20T18:02:52Z</time>
      </trkpt>
      <trkpt lat="59.8898706" lon="17.8414186">
        <ele>26.0929</ele>
        <time>2012-07-20T18:02:56Z</time>
      </trkpt>
      <trkpt lat="59.8898095" lon="17.8422995">
        <ele>24.651</ele>
        <time>2012-07-20T18:03:02Z</time>
      </trkpt>
      <trkpt lat="59.8897727" lon="17.8426077">
        <ele>25.1317</ele>
        <time>2012-07-20T18:03:04Z</time>
      </trkpt>
      <trkpt lat="59.8896214" lon="17.843163">
        <ele>18.4023</ele>
        <time>2012-07-20T18:03:08Z</time>
      </trkpt>
      <trkpt lat="59.8894028" lon="17.8433339">
        <ele>15.999</ele>
        <time>2012-07-20T18:03:11Z</time>
      </trkpt>
      <trkpt lat="59.8892412" lon="17.8432161">
        <ele>16.4797</ele>
        <time>2012-07-20T18:03:13Z</time>
      </trkpt>
      <trkpt lat="59.8887624" lon="17.8429093">
        <ele>15.0377</ele>
        <time>2012-07-20T18:03:19Z</time>
      </trkpt>
      <trkpt lat="59.8883432" lon="17.8427155">
        <ele>12.1538</ele>
        <time>2012-07-20T18:03:24Z</time>
      </trkpt>
      <trkpt lat="59.8878585" lon="17.8422662">
        <ele>16.9604</ele>
        <time>2012-07-20T18:03:30Z</time>
      </trkpt>
      <trkpt lat="59.8875783" lon="17.8418317">
        <ele>19.3638</ele>
        <time>2012-07-20T18:03:34Z</time>
      </trkpt>
      <trkpt lat="59.887367" lon="17.8413334">
        <ele>21.767</ele>
        <time>2012-07-20T18:03:38Z</time>
      </trkpt>
      <trkpt lat="59.8870875" lon="17.8409664">
        <ele>22.7283</ele>
        <time>2012-07-20T18:03:42Z</time>
      </trkpt>
      <trkpt lat="59.8868208" lon="17.8409122">
        <ele>23.209</ele>
        <time>2012-07-20T18:03:45Z</time>
      </trkpt>
      <trkpt lat="59.8866499" lon="17.8409714">
        <ele>23.209</ele>
        <time>2012-07-20T18:03:47Z</time>
      </trkpt>
      <trkpt lat="59.8861583" lon="17.841163">
        <ele>22.2476</ele>
        <time>2012-07-20T18:03:53Z</time>
      </trkpt>
      <trkpt lat="59.8854807" lon="17.8412494">
        <ele>19.3638</ele>
        <time>2012-07-20T18:04:01Z</time>
      </trkpt>
      <trkpt lat="59.8849244" lon="17.8412924">
        <ele>15.0377</ele>
        <time>2012-07-20T18:04:07Z</time>
      </trkpt>
      <trkpt lat="59.884571" lon="17.8411372">
        <ele>15.5184</ele>
        <time>2012-07-20T18:04:11Z</time>
      </trkpt>
      <trkpt lat="59.8842091" lon="17.8407604">
        <ele>15.5184</ele>
        <time>2012-07-20T18:04:16Z</time>
      </trkpt>
      <trkpt lat="59.8837003" lon="17.8400537">
        <ele>17.4412</ele>
        <time>2012-07-20T18:04:24Z</time>
      </trkpt>
      <trkpt lat="59.8833615" lon="17.8396075">
        <ele>21.2864</ele>
        <time>2012-07-20T18:04:30Z</time>
      </trkpt>
      <trkpt lat="59.8831243" lon="17.8392935">
        <ele>21.767</ele>
        <time>2012-07-20T18:04:35Z</time>
      </trkpt>
      <trkpt lat="59.882928" lon="17.8390505">
        <ele>22.2476</ele>
        <time>2012-07-20T18:04:40Z</time>
      </trkpt>
      <trkpt lat="59.8826394" lon="17.8388905">
        <ele>20.8057</ele>
        <time>2012-07-20T18:04:46Z</time>
      </trkpt>
      <trkpt lat="59.8823633" lon="17.8387685">
        <ele>16.9604</ele>
        <time>2012-07-20T18:04:50Z</time>
      </trkpt>
      <trkpt lat="59.8822851" lon="17.838722">
        <ele>16.9604</ele>
        <time>2012-07-20T18:04:51Z</time>
      </trkpt>
      <trkpt lat="59.8819148" lon="17.8382752">
        <ele>15.999</ele>
        <time>2012-07-20T18:04:56Z</time>
      </trkpt>
      <trkpt lat="59.8814149" lon="17.8375602">
        <ele>12.1538</ele>
        <time>2012-07-20T18:05:03Z</time>
      </trkpt>
      <trkpt lat="59.8810415" lon="17.8369567">
        <ele>12.1538</ele>
        <time>2012-07-20T18:05:09Z</time>
      </trkpt>
      <trkpt lat="59.8806017" lon="17.8363009">
        <ele>17.9218</ele>
        <time>2012-07-20T18:05:16Z</time>
      </trkpt>
      <trkpt lat="59.8801786" lon="17.835842">
        <ele>22.2476</ele>
        <time>2012-07-20T18:05:22Z</time>
      </trkpt>
      <trkpt lat="59.8799773" lon="17.835698">
        <ele>22.7283</ele>
        <time>2012-07-20T18:05:25Z</time>
      </trkpt>
      <trkpt lat="59.8795902" lon="17.8356675">
        <ele>19.3638</ele>
        <time>2012-07-20T18:05:30Z</time>
      </trkpt>
      <trkpt lat="59.8791118" lon="17.8355468">
        <ele>15.999</ele>
        <time>2012-07-20T18:05:36Z</time>
      </trkpt>
      <trkpt lat="59.8787182" lon="17.8353984">
        <ele>19.3638</ele>
        <time>2012-07-20T18:05:41Z</time>
      </trkpt>
      <trkpt lat="59.8782557" lon="17.8350365">
        <ele>23.209</ele>
        <time>2012-07-20T18:05:47Z</time>
      </trkpt>
      <trkpt lat="59.8778542" lon="17.8345785">
        <ele>25.1317</ele>
        <time>2012-07-20T18:05:53Z</time>
      </trkpt>
      <trkpt lat="59.8774748" lon="17.8340676">
        <ele>25.1317</ele>
        <time>2012-07-20T18:05:59Z</time>
      </trkpt>
      <trkpt lat="59.8770167" lon="17.8335735">
        <ele>24.1703</ele>
        <time>2012-07-20T18:06:06Z</time>
      </trkpt>
      <trkpt lat="59.8766776" lon="17.8333249">
        <ele>22.2476</ele>
        <time>2012-07-20T18:06:12Z</time>
      </trkpt>
      <trkpt lat="59.8763271" lon="17.8330974">
        <ele>20.325</ele>
        <time>2012-07-20T18:06:18Z</time>
      </trkpt>
      <trkpt lat="59.8759039" lon="17.832756">
        <ele>16.4797</ele>
        <time>2012-07-20T18:06:24Z</time>
      </trkpt>
      <trkpt lat="59.8755242" lon="17.8323842">
        <ele>15.0377</ele>
        <time>2012-07-20T18:06:30Z</time>
      </trkpt>
      <trkpt lat="59.8751371" lon="17.8322558">
        <ele>16.9604</ele>
        <time>2012-07-20T18:06:35Z</time>
      </trkpt>
      <trkpt lat="59.8745995" lon="17.8320879">
        <ele>18.4023</ele>
        <time>2012-07-20T18:06:42Z</time>
      </trkpt>
      <trkpt lat="59.8745321" lon="17.8320539">
        <ele>19.3638</ele>
        <time>2012-07-20T18:06:43Z</time>
      </trkpt>
      <trkpt lat="59.8741115" lon="17.8316198">
        <ele>22.7283</ele>
        <time>2012-07-20T18:06:50Z</time>
      </trkpt>
      <trkpt lat="59.8737355" lon="17.8311453">
        <ele>23.209</ele>
        <time>2012-07-20T18:06:56Z</time>
      </trkpt>
      <trkpt lat="59.8732888" lon="17.8307265">
        <ele>22.7283</ele>
        <time>2012-07-20T18:07:02Z</time>
      </trkpt>
      <trkpt lat="59.8727849" lon="17.8304789">
        <ele>20.8057</ele>
        <time>2012-07-20T18:07:08Z</time>
      </trkpt>
      <trkpt lat="59.8726956" lon="17.8304387">
        <ele>20.325</ele>
        <time>2012-07-20T18:07:09Z</time>
      </trkpt>
      <trkpt lat="59.8723421" lon="17.8301937">
        <ele>18.4023</ele>
        <time>2012-07-20T18:07:13Z</time>
      </trkpt>
      <trkpt lat="59.872271" lon="17.8301293">
        <ele>18.4023</ele>
        <time>2012-07-20T18:07:14Z</time>
      </trkpt>
      <trkpt lat="59.8721509" lon="17.8298486">
        <ele>17.4412</ele>
        <time>2012-07-20T18:07:17Z</time>
      </trkpt>
      <trkpt lat="59.8721745" lon="17.8295868">
        <ele>16.9604</ele>
        <time>2012-07-20T18:07:19Z</time>
      </trkpt>
      <trkpt lat="59.8722975" lon="17.8286704">
        <ele>17.9218</ele>
        <time>2012-07-20T18:07:26Z</time>
      </trkpt>
      <trkpt lat="59.8724309" lon="17.827414">
        <ele>18.4023</ele>
        <time>2012-07-20T18:07:36Z</time>
      </trkpt>
      <trkpt lat="59.8725788" lon="17.8263347">
        <ele>18.8831</ele>
        <time>2012-07-20T18:07:45Z</time>
      </trkpt>
      <trkpt lat="59.872792" lon="17.8253189">
        <ele>19.3638</ele>
        <time>2012-07-20T18:07:54Z</time>
      </trkpt>
      <trkpt lat="59.8729031" lon="17.8245001">
        <ele>19.8444</ele>
        <time>2012-07-20T18:08:01Z</time>
      </trkpt>
      <trkpt lat="59.8729585" lon="17.8239686">
        <ele>22.2476</ele>
        <time>2012-07-20T18:08:06Z</time>
      </trkpt>
      <trkpt lat="59.8729336" lon="17.8235526">
        <ele>22.7283</ele>
        <time>2012-07-20T18:08:10Z</time>
      </trkpt>
      <trkpt lat="59.8727925" lon="17.8229843">
        <ele>22.7283</ele>
        <time>2012-07-20T18:08:16Z</time>
      </trkpt>
      <trkpt lat="59.8727115" lon="17.8225344">
        <ele>21.767</ele>
        <time>2012-07-20T18:08:20Z</time>
      </trkpt>
      <trkpt lat="59.8725924" lon="17.8214367">
        <ele>19.8444</ele>
        <time>2012-07-20T18:08:28Z</time>
      </trkpt>
      <trkpt lat="59.8724139" lon="17.8198713">
        <ele>17.4412</ele>
        <time>2012-07-20T18:08:38Z</time>
      </trkpt>
      <trkpt lat="59.8722339" lon="17.8183151">
        <ele>16.9604</ele>
        <time>2012-07-20T18:08:48Z</time>
      </trkpt>
      <trkpt lat="59.8721272" lon="17.8171888">
        <ele>16.9604</ele>
        <time>2012-07-20T18:08:56Z</time>
      </trkpt>
      <trkpt lat="59.872083" lon="17.8163664">
        <ele>16.9604</ele>
        <time>2012-07-20T18:09:02Z</time>
      </trkpt>
      <trkpt lat="59.872038" lon="17.815124">
        <ele>15.5184</ele>
        <time>2012-07-20T18:09:10Z</time>
      </trkpt>
      <trkpt lat="59.8721235" lon="17.8141332">
        <ele>14.0764</ele>
        <time>2012-07-20T18:09:16Z</time>
      </trkpt>
      <trkpt lat="59.8723239" lon="17.8128915">
        <ele>13.5958</ele>
        <time>2012-07-20T18:09:24Z</time>
      </trkpt>
      <trkpt lat="59.8723431" lon="17.8127359">
        <ele>13.5958</ele>
        <time>2012-07-20T18:09:25Z</time>
      </trkpt>
      <trkpt lat="59.872639" lon="17.8114437">
        <ele>14.0764</ele>
        <time>2012-07-20T18:09:34Z</time>
      </trkpt>
      <trkpt lat="59.8728609" lon="17.81071">
        <ele>16.9604</ele>
        <time>2012-07-20T18:09:40Z</time>
      </trkpt>
      <trkpt lat="59.8730555" lon="17.8099637">
        <ele>18.8831</ele>
        <time>2012-07-20T18:09:47Z</time>
      </trkpt>
      <trkpt lat="59.873159" lon="17.8094007">
        <ele>20.325</ele>
        <time>2012-07-20T18:09:52Z</time>
      </trkpt>
      <trkpt lat="59.8732613" lon="17.8082512">
        <ele>20.8057</ele>
        <time>2012-07-20T18:10:01Z</time>
      </trkpt>
      <trkpt lat="59.8733292" lon="17.8074986">
        <ele>17.9218</ele>
        <time>2012-07-20T18:10:06Z</time>
      </trkpt>
      <trkpt lat="59.8735115" lon="17.8065925">
        <ele>16.4797</ele>
        <time>2012-07-20T18:10:12Z</time>
      </trkpt>
      <trkpt lat="59.8738408" lon="17.8054825">
        <ele>15.5184</ele>
        <time>2012-07-20T18:10:20Z</time>
      </trkpt>
      <trkpt lat="59.8741544" lon="17.8047845">
        <ele>16.4797</ele>
        <time>2012-07-20T18:10:26Z</time>
      </trkpt>
      <trkpt lat="59.874468" lon="17.8039916">
        <ele>17.4412</ele>
        <time>2012-07-20T18:10:33Z</time>
      </trkpt>
      <trkpt lat="59.8747635" lon="17.803071">
        <ele>16.9604</ele>
        <time>2012-07-20T18:10:41Z</time>
      </trkpt>
      <trkpt lat="59.8750476" lon="17.8024332">
        <ele>17.4412</ele>
        <time>2012-07-20T18:10:47Z</time>
      </trkpt>
      <trkpt lat="59.8752087" lon="17.8019082">
        <ele>17.9218</ele>
        <time>2012-07-20T18:10:52Z</time>
      </trkpt>
      <trkpt lat="59.8754066" lon="17.8010073">
        <ele>17.9218</ele>
        <time>2012-07-20T18:11:01Z</time>
      </trkpt>
      <trkpt lat="59.8756038" lon="17.8002138">
        <ele>16.4797</ele>
        <time>2012-07-20T18:11:10Z</time>
      </trkpt>
      <trkpt lat="59.875826" lon="17.7995177">
        <ele>15.999</ele>
        <time>2012-07-20T18:11:18Z</time>
      </trkpt>
      <trkpt lat="59.876085" lon="17.7988897">
        <ele>16.9604</ele>
        <time>2012-07-20T18:11:26Z</time>
      </trkpt>
      <trkpt lat="59.8763028" lon="17.7981853">
        <ele>18.4023</ele>
        <time>2012-07-20T18:11:33Z</time>
      </trkpt>
      <trkpt lat="59.8765108" lon="17.7975098">
        <ele>18.8831</ele>
        <time>2012-07-20T18:11:40Z</time>
      </trkpt>
      <trkpt lat="59.8767064" lon="17.7968068">
        <ele>17.4412</ele>
        <time>2012-07-20T18:11:47Z</time>
      </trkpt>
      <trkpt lat="59.8769155" lon="17.7960344">
        <ele>17.4412</ele>
        <time>2012-07-20T18:11:54Z</time>
      </trkpt>
      <trkpt lat="59.8772253" lon="17.7949452">
        <ele>17.9218</ele>
        <time>2012-07-20T18:12:03Z</time>
      </trkpt>
      <trkpt lat="59.8774197" lon="17.7942549">
        <ele>16.9604</ele>
        <time>2012-07-20T18:12:09Z</time>
      </trkpt>
      <trkpt lat="59.8774898" lon="17.7940285">
        <ele>16.9604</ele>
        <time>2012-07-20T18:12:11Z</time>
      </trkpt>
      <trkpt lat="59.8776587" lon="17.7931168">
        <ele>15.5184</ele>
        <time>2012-07-20T18:12:18Z</time>
      </trkpt>
      <trkpt lat="59.8777366" lon="17.7919406">
        <ele>15.0377</ele>
        <time>2012-07-20T18:12:26Z</time>
      </trkpt>
      <trkpt lat="59.8777029" lon="17.7908651">
        <ele>13.1151</ele>
        <time>2012-07-20T18:12:33Z</time>
      </trkpt>
      <trkpt lat="59.8776724" lon="17.7897282">
        <ele>12.6344</ele>
        <time>2012-07-20T18:12:40Z</time>
      </trkpt>
      <trkpt lat="59.8776346" lon="17.7887811">
        <ele>11.1925</ele>
        <time>2012-07-20T18:12:46Z</time>
      </trkpt>
      <trkpt lat="59.8777079" lon="17.7881709">
        <ele>10.7118</ele>
        <time>2012-07-20T18:12:50Z</time>
      </trkpt>
      <trkpt lat="59.8779006" lon="17.7872641">
        <ele>9.75061</ele>
        <time>2012-07-20T18:12:56Z</time>
      </trkpt>
      <trkpt lat="59.8781422" lon="17.7861154">
        <ele>8.78918</ele>
        <time>2012-07-20T18:13:03Z</time>
      </trkpt>
      <trkpt lat="59.8783827" lon="17.7848417">
        <ele>9.2699</ele>
        <time>2012-07-20T18:13:11Z</time>
      </trkpt>
      <trkpt lat="59.8785773" lon="17.7843393">
        <ele>7.34717</ele>
        <time>2012-07-20T18:13:15Z</time>
      </trkpt>
      <trkpt lat="59.8789622" lon="17.7837256">
        <ele>6.38586</ele>
        <time>2012-07-20T18:13:22Z</time>
      </trkpt>
      <trkpt lat="59.8793424" lon="17.7831236">
        <ele>5.90527</ele>
        <time>2012-07-20T18:13:30Z</time>
      </trkpt>
      <trkpt lat="59.8794875" lon="17.7829499">
        <ele>5.90527</ele>
        <time>2012-07-20T18:13:33Z</time>
      </trkpt>
      <trkpt lat="59.8797592" lon="17.7828903">
        <ele>5.90527</ele>
        <time>2012-07-20T18:13:38Z</time>
      </trkpt>
      <trkpt lat="59.8798123" lon="17.782924">
        <ele>6.38586</ele>
        <time>2012-07-20T18:13:39Z</time>
      </trkpt>
      <trkpt lat="59.8800621" lon="17.783119">
        <ele>7.82788</ele>
        <time>2012-07-20T18:13:44Z</time>
      </trkpt>
      <trkpt lat="59.8802094" lon="17.7832184">
        <ele>9.2699</ele>
        <time>2012-07-20T18:13:47Z</time>
      </trkpt>
      <trkpt lat="59.8805495" lon="17.7834665">
        <ele>10.7118</ele>
        <time>2012-07-20T18:13:54Z</time>
      </trkpt>
      <trkpt lat="59.8805924" lon="17.7835063">
        <ele>11.1925</ele>
        <time>2012-07-20T18:13:55Z</time>
      </trkpt>
      <trkpt lat="59.8809291" lon="17.7835908">
        <ele>12.6344</ele>
        <time>2012-07-20T18:14:02Z</time>
      </trkpt>
      <trkpt lat="59.8813331" lon="17.7834748">
        <ele>14.557</ele>
        <time>2012-07-20T18:14:11Z</time>
      </trkpt>
      <trkpt lat="59.8816703" lon="17.7833563">
        <ele>16.4797</ele>
        <time>2012-07-20T18:14:19Z</time>
      </trkpt>
      <trkpt lat="59.881887" lon="17.7832919">
        <ele>18.8831</ele>
        <time>2012-07-20T18:14:25Z</time>
      </trkpt>
      <trkpt lat="59.8821029" lon="17.7832023">
        <ele>20.325</ele>
        <time>2012-07-20T18:14:31Z</time>
      </trkpt>
      <trkpt lat="59.8823588" lon="17.7830884">
        <ele>21.2864</ele>
        <time>2012-07-20T18:14:38Z</time>
      </trkpt>
      <trkpt lat="59.8825784" lon="17.783013">
        <ele>22.7283</ele>
        <time>2012-07-20T18:14:43Z</time>
      </trkpt>
      <trkpt lat="59.8828981" lon="17.7829134">
        <ele>26.0929</ele>
        <time>2012-07-20T18:14:51Z</time>
      </trkpt>
      <trkpt lat="59.8829318" lon="17.7829073">
        <ele>26.5736</ele>
        <time>2012-07-20T18:14:52Z</time>
      </trkpt>
      <trkpt lat="59.8831218" lon="17.7828344">
        <ele>28.4962</ele>
        <time>2012-07-20T18:14:58Z</time>
      </trkpt>
      <trkpt lat="59.8831487" lon="17.7827929">
        <ele>28.9769</ele>
        <time>2012-07-20T18:14:59Z</time>
      </trkpt>
      <trkpt lat="59.8832245" lon="17.7823403">
        <ele>32.3416</ele>
        <time>2012-07-20T18:15:06Z</time>
      </trkpt>
      <trkpt lat="59.8832753" lon="17.7817768">
        <ele>34.7449</ele>
        <time>2012-07-20T18:15:12Z</time>
      </trkpt>
      <trkpt lat="59.8833175" lon="17.7810351">
        <ele>35.7061</ele>
        <time>2012-07-20T18:15:18Z</time>
      </trkpt>
      <trkpt lat="59.8833611" lon="17.7805469">
        <ele>33.3029</ele>
        <time>2012-07-20T18:15:22Z</time>
      </trkpt>
      <trkpt lat="59.8833055" lon="17.7800202">
        <ele>31.3801</ele>
        <time>2012-07-20T18:15:26Z</time>
      </trkpt>
      <trkpt lat="59.8832658" lon="17.7799089">
        <ele>30.8995</ele>
        <time>2012-07-20T18:15:27Z</time>
      </trkpt>
      <trkpt lat="59.8830857" lon="17.7794799">
        <ele>28.9769</ele>
        <time>2012-07-20T18:15:31Z</time>
      </trkpt>
      <trkpt lat="59.882943" lon="17.7787429">
        <ele>26.5736</ele>
        <time>2012-07-20T18:15:36Z</time>
      </trkpt>
      <trkpt lat="59.8829462" lon="17.7781285">
        <ele>27.5349</ele>
        <time>2012-07-20T18:15:40Z</time>
      </trkpt>
      <trkpt lat="59.8831413" lon="17.7778667">
        <ele>25.6123</ele>
        <time>2012-07-20T18:15:43Z</time>
      </trkpt>
      <trkpt lat="59.8832959" lon="17.7778687">
        <ele>25.6123</ele>
        <time>2012-07-20T18:15:45Z</time>
      </trkpt>
      <trkpt lat="59.8835215" lon="17.7778078">
        <ele>25.6123</ele>
        <time>2012-07-20T18:15:48Z</time>
      </trkpt>
      <trkpt lat="59.8837287" lon="17.7776554">
        <ele>26.0929</ele>
        <time>2012-07-20T18:15:51Z</time>
      </trkpt>
      <trkpt lat="59.8839729" lon="17.7773289">
        <ele>26.5736</ele>
        <time>2012-07-20T18:15:55Z</time>
      </trkpt>
      <trkpt lat="59.8841573" lon="17.7768752">
        <ele>26.5736</ele>
        <time>2012-07-20T18:15:59Z</time>
      </trkpt>
      <trkpt lat="59.8844194" lon="17.7760112">
        <ele>28.4962</ele>
        <time>2012-07-20T18:16:06Z</time>
      </trkpt>
      <trkpt lat="59.8847093" lon="17.775259">
        <ele>26.5736</ele>
        <time>2012-07-20T18:16:13Z</time>
      </trkpt>
      <trkpt lat="59.8849665" lon="17.7745002">
        <ele>27.5349</ele>
        <time>2012-07-20T18:16:20Z</time>
      </trkpt>
      <trkpt lat="59.8850704" lon="17.7741541">
        <ele>28.0155</ele>
        <time>2012-07-20T18:16:23Z</time>
      </trkpt>
      <trkpt lat="59.8852674" lon="17.7736348">
        <ele>28.0155</ele>
        <time>2012-07-20T18:16:28Z</time>
      </trkpt>
      <trkpt lat="59.8855793" lon="17.7730244">
        <ele>28.9769</ele>
        <time>2012-07-20T18:16:35Z</time>
      </trkpt>
      <trkpt lat="59.8856617" lon="17.7728302">
        <ele>28.4962</ele>
        <time>2012-07-20T18:16:37Z</time>
      </trkpt>
      <trkpt lat="59.8857869" lon="17.7722353">
        <ele>25.6123</ele>
        <time>2012-07-20T18:16:42Z</time>
      </trkpt>
      <trkpt lat="59.8857906" lon="17.771966">
        <ele>24.1703</ele>
        <time>2012-07-20T18:16:44Z</time>
      </trkpt>
      <trkpt lat="59.8857811" lon="17.7717067">
        <ele>23.209</ele>
        <time>2012-07-20T18:16:46Z</time>
      </trkpt>
      <trkpt lat="59.8856744" lon="17.771184">
        <ele>21.767</ele>
        <time>2012-07-20T18:16:50Z</time>
      </trkpt>
      <trkpt lat="59.8854423" lon="17.7706665">
        <ele>22.7283</ele>
        <time>2012-07-20T18:16:55Z</time>
      </trkpt>
      <trkpt lat="59.8852731" lon="17.7704083">
        <ele>25.1317</ele>
        <time>2012-07-20T18:16:58Z</time>
      </trkpt>
      <trkpt lat="59.8849327" lon="17.7696777">
        <ele>28.4962</ele>
        <time>2012-07-20T18:17:05Z</time>
      </trkpt>
      <trkpt lat="59.8846874" lon="17.7691341">
        <ele>29.9381</ele>
        <time>2012-07-20T18:17:10Z</time>
      </trkpt>
      <trkpt lat="59.8845356" lon="17.7685534">
        <ele>27.0543</ele>
        <time>2012-07-20T18:17:15Z</time>
      </trkpt>
      <trkpt lat="59.8846018" lon="17.7682079">
        <ele>26.0929</ele>
        <time>2012-07-20T18:17:18Z</time>
      </trkpt>
      <trkpt lat="59.8846464" lon="17.7681115">
        <ele>25.6123</ele>
        <time>2012-07-20T18:17:19Z</time>
      </trkpt>
      <trkpt lat="59.884708" lon="17.7679157">
        <ele>26.0929</ele>
        <time>2012-07-20T18:17:21Z</time>
      </trkpt>
      <trkpt lat="59.884743" lon="17.7674883">
        <ele>26.0929</ele>
        <time>2012-07-20T18:17:25Z</time>
      </trkpt>
      <trkpt lat="59.8847178" lon="17.7672874">
        <ele>26.0929</ele>
        <time>2012-07-20T18:17:27Z</time>
      </trkpt>
      <trkpt lat="59.8846827" lon="17.7666234">
        <ele>26.0929</ele>
        <time>2012-07-20T18:17:32Z</time>
      </trkpt>
      <trkpt lat="59.8847292" lon="17.7655729">
        <ele>22.7283</ele>
        <time>2012-07-20T18:17:39Z</time>
      </trkpt>
      <trkpt lat="59.8847749" lon="17.7649661">
        <ele>23.209</ele>
        <time>2012-07-20T18:17:44Z</time>
      </trkpt>
      <trkpt lat="59.8847907" lon="17.7645874">
        <ele>22.7283</ele>
        <time>2012-07-20T18:17:47Z</time>
      </trkpt>
      <trkpt lat="59.8848255" lon="17.7641643">
        <ele>23.209</ele>
        <time>2012-07-20T18:17:50Z</time>
      </trkpt>
      <trkpt lat="59.8848633" lon="17.7638726">
        <ele>23.209</ele>
        <time>2012-07-20T18:17:52Z</time>
      </trkpt>
      <trkpt lat="59.8850302" lon="17.7629994">
        <ele>27.0543</ele>
        <time>2012-07-20T18:17:58Z</time>
      </trkpt>
      <trkpt lat="59.8851945" lon="17.7620716">
        <ele>26.0929</ele>
        <time>2012-07-20T18:18:04Z</time>
      </trkpt>
      <trkpt lat="59.885352" lon="17.7611494">
        <ele>21.767</ele>
        <time>2012-07-20T18:18:10Z</time>
      </trkpt>
      <trkpt lat="59.8854535" lon="17.7603456">
        <ele>18.8831</ele>
        <time>2012-07-20T18:18:15Z</time>
      </trkpt>
      <trkpt lat="59.885599" lon="17.7590284">
        <ele>18.4023</ele>
        <time>2012-07-20T18:18:23Z</time>
      </trkpt>
      <trkpt lat="59.8857044" lon="17.7580767">
        <ele>19.3638</ele>
        <time>2012-07-20T18:18:29Z</time>
      </trkpt>
      <trkpt lat="59.8858461" lon="17.7575903">
        <ele>20.325</ele>
        <time>2012-07-20T18:18:33Z</time>
      </trkpt>
      <trkpt lat="59.8860823" lon="17.7571739">
        <ele>20.325</ele>
        <time>2012-07-20T18:18:38Z</time>
      </trkpt>
      <trkpt lat="59.886377" lon="17.7568796">
        <ele>24.651</ele>
        <time>2012-07-20T18:18:44Z</time>
      </trkpt>
      <trkpt lat="59.8865703" lon="17.7566853">
        <ele>26.0929</ele>
        <time>2012-07-20T18:18:50Z</time>
      </trkpt>
      <trkpt lat="59.8868111" lon="17.7564371">
        <ele>25.1317</ele>
        <time>2012-07-20T18:18:58Z</time>
      </trkpt>
      <trkpt lat="59.8870415" lon="17.7561247">
        <ele>27.5349</ele>
        <time>2012-07-20T18:19:05Z</time>
      </trkpt>
      <trkpt lat="59.887227" lon="17.7557909">
        <ele>29.4575</ele>
        <time>2012-07-20T18:19:10Z</time>
      </trkpt>
      <trkpt lat="59.887265" lon="17.7557124">
        <ele>28.9769</ele>
        <time>2012-07-20T18:19:11Z</time>
      </trkpt>
      <trkpt lat="59.8874099" lon="17.7555131">
        <ele>28.4962</ele>
        <time>2012-07-20T18:19:14Z</time>
      </trkpt>
      <trkpt lat="59.8875192" lon="17.7554086">
        <ele>28.0155</ele>
        <time>2012-07-20T18:19:16Z</time>
      </trkpt>
      <trkpt lat="59.8877747" lon="17.7553658">
        <ele>28.9769</ele>
        <time>2012-07-20T18:19:20Z</time>
      </trkpt>
      <trkpt lat="59.8882775" lon="17.7554386">
        <ele>30.4188</ele>
        <time>2012-07-20T18:19:28Z</time>
      </trkpt>
      <trkpt lat="59.888621" lon="17.7552463">
        <ele>30.8995</ele>
        <time>2012-07-20T18:19:33Z</time>
      </trkpt>
      <trkpt lat="59.8886945" lon="17.7551588">
        <ele>31.3801</ele>
        <time>2012-07-20T18:19:34Z</time>
      </trkpt>
      <trkpt lat="59.8889557" lon="17.7545403">
        <ele>29.9381</ele>
        <time>2012-07-20T18:19:39Z</time>
      </trkpt>
      <trkpt lat="59.8892285" lon="17.7534912">
        <ele>27.5349</ele>
        <time>2012-07-20T18:19:46Z</time>
      </trkpt>
      <trkpt lat="59.8893602" lon="17.7530531">
        <ele>26.5736</ele>
        <time>2012-07-20T18:19:49Z</time>
      </trkpt>
      <trkpt lat="59.8894664" lon="17.7520659">
        <ele>21.767</ele>
        <time>2012-07-20T18:19:55Z</time>
      </trkpt>
      <trkpt lat="59.8895384" lon="17.751127">
        <ele>20.325</ele>
        <time>2012-07-20T18:20:01Z</time>
      </trkpt>
      <trkpt lat="59.8895539" lon="17.7509707">
        <ele>19.8444</ele>
        <time>2012-07-20T18:20:02Z</time>
      </trkpt>
      <trkpt lat="59.8897166" lon="17.750416">
        <ele>18.8831</ele>
        <time>2012-07-20T18:20:06Z</time>
      </trkpt>
      <trkpt lat="59.8897772" lon="17.7503066">
        <ele>18.8831</ele>
        <time>2012-07-20T18:20:07Z</time>
      </trkpt>
      <trkpt lat="59.8902166" lon="17.749581">
        <ele>17.9218</ele>
        <time>2012-07-20T18:20:14Z</time>
      </trkpt>
      <trkpt lat="59.8906571" lon="17.7485436">
        <ele>15.999</ele>
        <time>2012-07-20T18:20:22Z</time>
      </trkpt>
      <trkpt lat="59.8910104" lon="17.7480168">
        <ele>15.5184</ele>
        <time>2012-07-20T18:20:27Z</time>
      </trkpt>
      <trkpt lat="59.891482" lon="17.747413">
        <ele>16.4797</ele>
        <time>2012-07-20T18:20:34Z</time>
      </trkpt>
      <trkpt lat="59.8920666" lon="17.7465558">
        <ele>16.9604</ele>
        <time>2012-07-20T18:20:44Z</time>
      </trkpt>
      <trkpt lat="59.8922155" lon="17.7462841">
        <ele>16.9604</ele>
        <time>2012-07-20T18:20:47Z</time>
      </trkpt>
      <trkpt lat="59.8925116" lon="17.7454843">
        <ele>17.9218</ele>
        <time>2012-07-20T18:20:55Z</time>
      </trkpt>
      <trkpt lat="59.8927538" lon="17.7447528">
        <ele>20.8057</ele>
        <time>2012-07-20T18:21:03Z</time>
      </trkpt>
      <trkpt lat="59.8928023" lon="17.744595">
        <ele>21.2864</ele>
        <time>2012-07-20T18:21:05Z</time>
      </trkpt>
      <trkpt lat="59.8929245" lon="17.7442182">
        <ele>23.209</ele>
        <time>2012-07-20T18:21:11Z</time>
      </trkpt>
      <trkpt lat="59.8930468" lon="17.7438226">
        <ele>25.6123</ele>
        <time>2012-07-20T18:21:19Z</time>
      </trkpt>
      <trkpt lat="59.8931602" lon="17.7434298">
        <ele>26.0929</ele>
        <time>2012-07-20T18:21:25Z</time>
      </trkpt>
      <trkpt lat="59.8933266" lon="17.7429808">
        <ele>28.0155</ele>
        <time>2012-07-20T18:21:30Z</time>
      </trkpt>
      <trkpt lat="59.8935764" lon="17.7422387">
        <ele>28.4962</ele>
        <time>2012-07-20T18:21:36Z</time>
      </trkpt>
      <trkpt lat="59.8939467" lon="17.7410328">
        <ele>26.0929</ele>
        <time>2012-07-20T18:21:45Z</time>
      </trkpt>
      <trkpt lat="59.8942275" lon="17.7401373">
        <ele>25.6123</ele>
        <time>2012-07-20T18:21:52Z</time>
      </trkpt>
      <trkpt lat="59.8943482" lon="17.7398709">
        <ele>26.0929</ele>
        <time>2012-07-20T18:21:55Z</time>
      </trkpt>
      <trkpt lat="59.8944885" lon="17.7396882">
        <ele>27.0543</ele>
        <time>2012-07-20T18:21:58Z</time>
      </trkpt>
      <trkpt lat="59.8945322" lon="17.7396381">
        <ele>27.5349</ele>
        <time>2012-07-20T18:21:59Z</time>
      </trkpt>
      <trkpt lat="59.8947885" lon="17.739418">
        <ele>22.7283</ele>
        <time>2012-07-20T18:34:58Z</time>
      </trkpt>
      <trkpt lat="59.894896" lon="17.7393061">
        <ele>23.6896</ele>
        <time>2012-07-20T18:35:01Z</time>
      </trkpt>
      <trkpt lat="59.8949299" lon="17.7392947">
        <ele>23.6896</ele>
        <time>2012-07-20T18:35:02Z</time>
      </trkpt>
      <trkpt lat="59.8951159" lon="17.7392372">
        <ele>23.209</ele>
        <time>2012-07-20T18:35:08Z</time>
      </trkpt>
      <trkpt lat="59.8953458" lon="17.7391904">
        <ele>20.325</ele>
        <time>2012-07-20T18:35:15Z</time>
      </trkpt>
      <trkpt lat="59.8955478" lon="17.7391585">
        <ele>18.4023</ele>
        <time>2012-07-20T18:35:22Z</time>
      </trkpt>
      <trkpt lat="59.8956649" lon="17.7390994">
        <ele>18.4023</ele>
        <time>2012-07-20T18:35:27Z</time>
      </trkpt>
      <trkpt lat="59.8958727" lon="17.7390797">
        <ele>17.9218</ele>
        <time>2012-07-20T18:35:34Z</time>
      </trkpt>
      <trkpt lat="59.8961387" lon="17.7389522">
        <ele>16.9604</ele>
        <time>2012-07-20T18:35:42Z</time>
      </trkpt>
      <trkpt lat="59.8963809" lon="17.7388584">
        <ele>15.999</ele>
        <time>2012-07-20T18:35:50Z</time>
      </trkpt>
      <trkpt lat="59.8965134" lon="17.7386895">
        <ele>13.1151</ele>
        <time>2012-07-20T18:35:55Z</time>
      </trkpt>
      <trkpt lat="59.896616" lon="17.7382862">
        <ele>13.1151</ele>
        <time>2012-07-20T18:36:01Z</time>
      </trkpt>
      <trkpt lat="59.8966865" lon="17.7379799">
        <ele>15.0377</ele>
        <time>2012-07-20T18:36:08Z</time>
      </trkpt>
      <trkpt lat="59.8967671" lon="17.7377698">
        <ele>15.5184</ele>
        <time>2012-07-20T18:36:16Z</time>
      </trkpt>
      <trkpt lat="59.8967801" lon="17.7377184">
        <ele>15.999</ele>
        <time>2012-07-20T18:36:18Z</time>
      </trkpt>
      <trkpt lat="59.896716" lon="17.7377121">
        <ele>16.9604</ele>
        <time>2012-07-20T18:36:22Z</time>
      </trkpt>
      <trkpt lat="59.8965969" lon="17.7380153">
        <ele>17.4412</ele>
        <time>2012-07-20T18:36:29Z</time>
      </trkpt>
      <trkpt lat="59.8965015" lon="17.7384192">
        <ele>16.4797</ele>
        <time>2012-07-20T18:36:37Z</time>
      </trkpt>
      <trkpt lat="59.8964" lon="17.7386631">
        <ele>17.4412</ele>
        <time>2012-07-20T18:36:43Z</time>
      </trkpt>
      <trkpt lat="59.89627" lon="17.7387358">
        <ele>18.8831</ele>
        <time>2012-07-20T18:36:48Z</time>
      </trkpt>
      <trkpt lat="59.8960608" lon="17.738797">
        <ele>19.8444</ele>
        <time>2012-07-20T18:36:53Z</time>
      </trkpt>
      <trkpt lat="59.8957018" lon="17.7389143">
        <ele>19.3638</ele>
        <time>2012-07-20T18:37:01Z</time>
      </trkpt>
      <trkpt lat="59.8953943" lon="17.7389974">
        <ele>19.3638</ele>
        <time>2012-07-20T18:37:09Z</time>
      </trkpt>
      <trkpt lat="59.8952068" lon="17.7390405">
        <ele>19.8444</ele>
        <time>2012-07-20T18:37:15Z</time>
      </trkpt>
      <trkpt lat="59.8950243" lon="17.7391026">
        <ele>21.2864</ele>
        <time>2012-07-20T18:37:22Z</time>
      </trkpt>
      <trkpt lat="59.8948471" lon="17.739164">
        <ele>23.6896</ele>
        <time>2012-07-20T18:37:30Z</time>
      </trkpt>
      <trkpt lat="59.8947465" lon="17.7392185">
        <ele>26.0929</ele>
        <time>2012-07-20T18:37:36Z</time>
      </trkpt>
      <trkpt lat="59.8947196" lon="17.7393538">
        <ele>25.1317</ele>
        <time>2012-07-20T18:37:42Z</time>
      </trkpt>
      <trkpt lat="59.894718" lon="17.7393569">
        <ele>25.6123</ele>
        <time>2012-07-20T18:37:43Z</time>
      </trkpt>
      <trkpt lat="59.8947552" lon="17.7393155">
        <ele>24.651</ele>
        <time>2012-07-20T18:38:26Z</time>
      </trkpt>
      <trkpt lat="59.8950235" lon="17.7392117">
        <ele>23.209</ele>
        <time>2012-07-20T18:38:32Z</time>
      </trkpt>
      <trkpt lat="59.8954021" lon="17.739122">
        <ele>21.2864</ele>
        <time>2012-07-20T18:38:40Z</time>
      </trkpt>
      <trkpt lat="59.8957222" lon="17.7390575">
        <ele>19.8444</ele>
        <time>2012-07-20T18:38:47Z</time>
      </trkpt>
      <trkpt lat="59.8960447" lon="17.7389529">
        <ele>18.8831</ele>
        <time>2012-07-20T18:38:54Z</time>
      </trkpt>
      <trkpt lat="59.896272" lon="17.7388954">
        <ele>19.8444</ele>
        <time>2012-07-20T18:38:59Z</time>
      </trkpt>
      <trkpt lat="59.8964226" lon="17.7387953">
        <ele>18.4023</ele>
        <time>2012-07-20T18:39:03Z</time>
      </trkpt>
      <trkpt lat="59.8966037" lon="17.7382873">
        <ele>15.5184</ele>
        <time>2012-07-20T18:39:10Z</time>
      </trkpt>
      <trkpt lat="59.8966901" lon="17.7379261">
        <ele>15.0377</ele>
        <time>2012-07-20T18:39:14Z</time>
      </trkpt>
      <trkpt lat="59.8968812" lon="17.7373592">
        <ele>15.0377</ele>
        <time>2012-07-20T18:39:21Z</time>
      </trkpt>
      <trkpt lat="59.8970734" lon="17.736761">
        <ele>14.0764</ele>
        <time>2012-07-20T18:39:27Z</time>
      </trkpt>
      <trkpt lat="59.8971543" lon="17.7362881">
        <ele>14.0764</ele>
        <time>2012-07-20T18:39:31Z</time>
      </trkpt>
      <trkpt lat="59.8971838" lon="17.7355048">
        <ele>13.5958</ele>
        <time>2012-07-20T18:39:38Z</time>
      </trkpt>
      <trkpt lat="59.8971999" lon="17.7353178">
        <ele>13.5958</ele>
        <time>2012-07-20T18:39:40Z</time>
      </trkpt>
      <trkpt lat="59.897256" lon="17.7347462">
        <ele>15.5184</ele>
        <time>2012-07-20T18:39:46Z</time>
      </trkpt>
      <trkpt lat="59.8974146" lon="17.7340191">
        <ele>16.4797</ele>
        <time>2012-07-20T18:39:54Z</time>
      </trkpt>
      <trkpt lat="59.8975173" lon="17.7332445">
        <ele>17.4412</ele>
        <time>2012-07-20T18:40:02Z</time>
      </trkpt>
      <trkpt lat="59.8975345" lon="17.7324579">
        <ele>17.9218</ele>
        <time>2012-07-20T18:40:09Z</time>
      </trkpt>
      <trkpt lat="59.8975567" lon="17.7315793">
        <ele>18.4023</ele>
        <time>2012-07-20T18:40:17Z</time>
      </trkpt>
      <trkpt lat="59.8975641" lon="17.7312661">
        <ele>19.3638</ele>
        <time>2012-07-20T18:40:20Z</time>
      </trkpt>
      <trkpt lat="59.8975427" lon="17.7307585">
        <ele>18.8831</ele>
        <time>2012-07-20T18:40:25Z</time>
      </trkpt>
      <trkpt lat="59.8975385" lon="17.730545">
        <ele>17.9218</ele>
        <time>2012-07-20T18:40:27Z</time>
      </trkpt>
      <trkpt lat="59.8975096" lon="17.7299742">
        <ele>15.5184</ele>
        <time>2012-07-20T18:40:31Z</time>
      </trkpt>
      <trkpt lat="59.897656" lon="17.7289258">
        <ele>14.557</ele>
        <time>2012-07-20T18:40:38Z</time>
      </trkpt>
      <trkpt lat="59.897907" lon="17.7278685">
        <ele>14.0764</ele>
        <time>2012-07-20T18:40:46Z</time>
      </trkpt>
      <trkpt lat="59.898212" lon="17.7269892">
        <ele>13.5958</ele>
        <time>2012-07-20T18:40:54Z</time>
      </trkpt>
      <trkpt lat="59.8984625" lon="17.7260122">
        <ele>14.0764</ele>
        <time>2012-07-20T18:41:03Z</time>
      </trkpt>
      <trkpt lat="59.8986097" lon="17.7251659">
        <ele>15.0377</ele>
        <time>2012-07-20T18:41:11Z</time>
      </trkpt>
      <trkpt lat="59.8987466" lon="17.7243408">
        <ele>15.5184</ele>
        <time>2012-07-20T18:41:19Z</time>
      </trkpt>
      <trkpt lat="59.8987762" lon="17.7241398">
        <ele>15.999</ele>
        <time>2012-07-20T18:41:21Z</time>
      </trkpt>
      <trkpt lat="59.8989463" lon="17.7230882">
        <ele>17.9218</ele>
        <time>2012-07-20T18:41:32Z</time>
      </trkpt>
      <trkpt lat="59.8990698" lon="17.7222796">
        <ele>17.9218</ele>
        <time>2012-07-20T18:41:40Z</time>
      </trkpt>
      <trkpt lat="59.8992387" lon="17.7212036">
        <ele>18.4023</ele>
        <time>2012-07-20T18:41:50Z</time>
      </trkpt>
      <trkpt lat="59.8993967" lon="17.7203226">
        <ele>18.8831</ele>
        <time>2012-07-20T18:41:58Z</time>
      </trkpt>
      <trkpt lat="59.8995811" lon="17.7193762">
        <ele>17.9218</ele>
        <time>2012-07-20T18:42:07Z</time>
      </trkpt>
      <trkpt lat="59.8997711" lon="17.7187381">
        <ele>19.3638</ele>
        <time>2012-07-20T18:42:14Z</time>
      </trkpt>
      <trkpt lat="59.8999282" lon="17.7182484">
        <ele>20.325</ele>
        <time>2012-07-20T18:42:19Z</time>
      </trkpt>
      <trkpt lat="59.9000675" lon="17.7174431">
        <ele>19.8444</ele>
        <time>2012-07-20T18:42:26Z</time>
      </trkpt>
      <trkpt lat="59.9001266" lon="17.7164644">
        <ele>19.8444</ele>
        <time>2012-07-20T18:42:34Z</time>
      </trkpt>
      <trkpt lat="59.900226" lon="17.7156793">
        <ele>20.325</ele>
        <time>2012-07-20T18:42:41Z</time>
      </trkpt>
      <trkpt lat="59.900414" lon="17.7148892">
        <ele>20.325</ele>
        <time>2012-07-20T18:42:49Z</time>
      </trkpt>
      <trkpt lat="59.9006388" lon="17.7141602">
        <ele>19.8444</ele>
        <time>2012-07-20T18:42:57Z</time>
      </trkpt>
      <trkpt lat="59.9008399" lon="17.7135398">
        <ele>18.8831</ele>
        <time>2012-07-20T18:43:04Z</time>
      </trkpt>
      <trkpt lat="59.9008911" lon="17.7133738">
        <ele>18.8831</ele>
        <time>2012-07-20T18:43:06Z</time>
      </trkpt>
      <trkpt lat="59.9009577" lon="17.7131322">
        <ele>18.8831</ele>
        <time>2012-07-20T18:43:09Z</time>
      </trkpt>
      <trkpt lat="59.9010166" lon="17.7129114">
        <ele>18.8831</ele>
        <time>2012-07-20T18:43:12Z</time>
      </trkpt>
      <trkpt lat="59.9009853" lon="17.7126354">
        <ele>18.8831</ele>
        <time>2012-07-20T18:43:16Z</time>
      </trkpt>
      <trkpt lat="59.9009428" lon="17.7125799">
        <ele>18.8831</ele>
        <time>2012-07-20T18:43:17Z</time>
      </trkpt>
      <trkpt lat="59.9005746" lon="17.7121353">
        <ele>19.3638</ele>
        <time>2012-07-20T18:43:25Z</time>
      </trkpt>
      <trkpt lat="59.9002409" lon="17.7117155">
        <ele>19.3638</ele>
        <time>2012-07-20T18:43:32Z</time>
      </trkpt>
      <trkpt lat="59.8997863" lon="17.7111596">
        <ele>18.8831</ele>
        <time>2012-07-20T18:43:41Z</time>
      </trkpt>
      <trkpt lat="59.8992698" lon="17.7105162">
        <ele>18.4023</ele>
        <time>2012-07-20T18:43:51Z</time>
      </trkpt>
      <trkpt lat="59.898786" lon="17.7098902">
        <ele>18.8831</ele>
        <time>2012-07-20T18:44:00Z</time>
      </trkpt>
      <trkpt lat="59.8982979" lon="17.7092408">
        <ele>18.4023</ele>
        <time>2012-07-20T18:44:09Z</time>
      </trkpt>
      <trkpt lat="59.8979001" lon="17.7087198">
        <ele>18.4023</ele>
        <time>2012-07-20T18:44:16Z</time>
      </trkpt>
      <trkpt lat="59.8974966" lon="17.7082146">
        <ele>17.9218</ele>
        <time>2012-07-20T18:44:23Z</time>
      </trkpt>
      <trkpt lat="59.8971293" lon="17.7076665">
        <ele>18.8831</ele>
        <time>2012-07-20T18:44:30Z</time>
      </trkpt>
      <trkpt lat="59.8965431" lon="17.7068832">
        <ele>20.325</ele>
        <time>2012-07-20T18:44:41Z</time>
      </trkpt>
      <trkpt lat="59.8960602" lon="17.7062333">
        <ele>21.2864</ele>
        <time>2012-07-20T18:44:50Z</time>
      </trkpt>
      <trkpt lat="59.895637" lon="17.7056578">
        <ele>21.2864</ele>
        <time>2012-07-20T18:44:58Z</time>
      </trkpt>
      <trkpt lat="59.8953008" lon="17.7052703">
        <ele>20.8057</ele>
        <time>2012-07-20T18:45:04Z</time>
      </trkpt>
      <trkpt lat="59.8949822" lon="17.7047979">
        <ele>21.2864</ele>
        <time>2012-07-20T18:45:10Z</time>
      </trkpt>
      <trkpt lat="59.8946085" lon="17.7042896">
        <ele>22.7283</ele>
        <time>2012-07-20T18:45:17Z</time>
      </trkpt>
      <trkpt lat="59.8941488" lon="17.703662">
        <ele>23.209</ele>
        <time>2012-07-20T18:45:26Z</time>
      </trkpt>
      <trkpt lat="59.8937406" lon="17.7031137">
        <ele>25.1317</ele>
        <time>2012-07-20T18:45:34Z</time>
      </trkpt>
      <trkpt lat="59.8933269" lon="17.702579">
        <ele>25.1317</ele>
        <time>2012-07-20T18:45:42Z</time>
      </trkpt>
      <trkpt lat="59.8929669" lon="17.702101">
        <ele>24.1703</ele>
        <time>2012-07-20T18:45:50Z</time>
      </trkpt>
      <trkpt lat="59.8927138" lon="17.7018126">
        <ele>22.7283</ele>
        <time>2012-07-20T18:45:56Z</time>
      </trkpt>
      <trkpt lat="59.8925227" lon="17.7014893">
        <ele>22.7283</ele>
        <time>2012-07-20T18:46:01Z</time>
      </trkpt>
      <trkpt lat="59.8923862" lon="17.7012988">
        <ele>22.7283</ele>
        <time>2012-07-20T18:46:06Z</time>
      </trkpt>
      <trkpt lat="59.8924108" lon="17.7011034">
        <ele>22.7283</ele>
        <time>2012-07-20T18:46:10Z</time>
      </trkpt>
      <trkpt lat="59.8924916" lon="17.7009531">
        <ele>22.7283</ele>
        <time>2012-07-20T18:46:14Z</time>
      </trkpt>
      <trkpt lat="59.8925466" lon="17.7009174">
        <ele>22.7283</ele>
        <time>2012-07-20T18:46:18Z</time>
      </trkpt>
      <trkpt lat="59.8925818" lon="17.7008538">
        <ele>21.767</ele>
        <time>2012-07-20T18:46:20Z</time>
      </trkpt>
      <trkpt lat="59.8927112" lon="17.7004348">
        <ele>21.767</ele>
        <time>2012-07-20T18:46:25Z</time>
      </trkpt>
      <trkpt lat="59.8929526" lon="17.6998672">
        <ele>21.767</ele>
        <time>2012-07-20T18:46:32Z</time>
      </trkpt>
      <trkpt lat="59.8931719" lon="17.6993255">
        <ele>20.8057</ele>
        <time>2012-07-20T18:46:39Z</time>
      </trkpt>
      <trkpt lat="59.8932199" lon="17.6988831">
        <ele>20.8057</ele>
        <time>2012-07-20T18:46:44Z</time>
      </trkpt>
      <trkpt lat="59.8932898" lon="17.6987175">
        <ele>20.325</ele>
        <time>2012-07-20T18:46:46Z</time>
      </trkpt>
      <trkpt lat="59.8935455" lon="17.6981794">
        <ele>21.2864</ele>
        <time>2012-07-20T18:46:53Z</time>
      </trkpt>
      <trkpt lat="59.8936814" lon="17.6975921">
        <ele>21.767</ele>
        <time>2012-07-20T18:46:59Z</time>
      </trkpt>
      <trkpt lat="59.8937571" lon="17.6968211">
        <ele>21.2864</ele>
        <time>2012-07-20T18:47:06Z</time>
      </trkpt>
      <trkpt lat="59.8937911" lon="17.6961213">
        <ele>24.651</ele>
        <time>2012-07-20T18:47:13Z</time>
      </trkpt>
      <trkpt lat="59.8938401" lon="17.6952991">
        <ele>26.5736</ele>
        <time>2012-07-20T18:47:20Z</time>
      </trkpt>
      <trkpt lat="59.8938644" lon="17.6942596">
        <ele>27.5349</ele>
        <time>2012-07-20T18:47:28Z</time>
      </trkpt>
      <trkpt lat="59.8938927" lon="17.6933773">
        <ele>28.9769</ele>
        <time>2012-07-20T18:47:35Z</time>
      </trkpt>
      <trkpt lat="59.8939118" lon="17.6926801">
        <ele>30.4188</ele>
        <time>2012-07-20T18:47:41Z</time>
      </trkpt>
      <trkpt lat="59.8939379" lon="17.6922402">
        <ele>32.8223</ele>
        <time>2012-07-20T18:47:45Z</time>
      </trkpt>
      <trkpt lat="59.8939597" lon="17.6914317">
        <ele>35.2255</ele>
        <time>2012-07-20T18:47:53Z</time>
      </trkpt>
      <trkpt lat="59.8940082" lon="17.6909016">
        <ele>37.1481</ele>
        <time>2012-07-20T18:47:59Z</time>
      </trkpt>
      <trkpt lat="59.8940482" lon="17.690649">
        <ele>38.5901</ele>
        <time>2012-07-20T18:48:02Z</time>
      </trkpt>
      <trkpt lat="59.8941586" lon="17.6897937">
        <ele>35.2255</ele>
        <time>2012-07-20T18:48:11Z</time>
      </trkpt>
      <trkpt lat="59.8941723" lon="17.6896944">
        <ele>35.2255</ele>
        <time>2012-07-20T18:48:12Z</time>
      </trkpt>
      <trkpt lat="59.8942782" lon="17.6886334">
        <ele>33.3029</ele>
        <time>2012-07-20T18:48:22Z</time>
      </trkpt>
      <trkpt lat="59.8943153" lon="17.6884054">
        <ele>32.3416</ele>
        <time>2012-07-20T18:48:24Z</time>
      </trkpt>
      <trkpt lat="59.8945081" lon="17.6875993">
        <ele>30.8995</ele>
        <time>2012-07-20T18:48:31Z</time>
      </trkpt>
      <trkpt lat="59.8946541" lon="17.6867524">
        <ele>30.4188</ele>
        <time>2012-07-20T18:48:38Z</time>
      </trkpt>
      <trkpt lat="59.894739" lon="17.6859072">
        <ele>29.9381</ele>
        <time>2012-07-20T18:48:45Z</time>
      </trkpt>
      <trkpt lat="59.8947708" lon="17.6852162">
        <ele>30.4188</ele>
        <time>2012-07-20T18:48:51Z</time>
      </trkpt>
      <trkpt lat="59.8948315" lon="17.684494">
        <ele>31.3801</ele>
        <time>2012-07-20T18:48:57Z</time>
      </trkpt>
      <trkpt lat="59.8949133" lon="17.6838514">
        <ele>31.8607</ele>
        <time>2012-07-20T18:49:03Z</time>
      </trkpt>
      <trkpt lat="59.8951324" lon="17.6833497">
        <ele>28.0155</ele>
        <time>2012-07-20T18:49:08Z</time>
      </trkpt>
      <trkpt lat="59.8951894" lon="17.6832787">
        <ele>27.5349</ele>
        <time>2012-07-20T18:49:09Z</time>
      </trkpt>
      <trkpt lat="59.8955302" lon="17.6828752">
        <ele>26.0929</ele>
        <time>2012-07-20T18:49:16Z</time>
      </trkpt>
      <trkpt lat="59.8955744" lon="17.6828243">
        <ele>25.6123</ele>
        <time>2012-07-20T18:49:17Z</time>
      </trkpt>
      <trkpt lat="59.8958655" lon="17.68263">
        <ele>25.6123</ele>
        <time>2012-07-20T18:49:23Z</time>
      </trkpt>
      <trkpt lat="59.8959502" lon="17.6825404">
        <ele>24.651</ele>
        <time>2012-07-20T18:49:25Z</time>
      </trkpt>
      <trkpt lat="59.8962347" lon="17.6822316">
        <ele>20.325</ele>
        <time>2012-07-20T18:49:31Z</time>
      </trkpt>
      <trkpt lat="59.8966748" lon="17.6817231">
        <ele>17.4412</ele>
        <time>2012-07-20T18:49:39Z</time>
      </trkpt>
      <trkpt lat="59.8968354" lon="17.6814787">
        <ele>16.9604</ele>
        <time>2012-07-20T18:49:42Z</time>
      </trkpt>
      <trkpt lat="59.897226" lon="17.6806182">
        <ele>18.4023</ele>
        <time>2012-07-20T18:49:51Z</time>
      </trkpt>
      <trkpt lat="59.8976648" lon="17.6794585">
        <ele>19.3638</ele>
        <time>2012-07-20T18:50:03Z</time>
      </trkpt>
      <trkpt lat="59.8979491" lon="17.6786942">
        <ele>20.325</ele>
        <time>2012-07-20T18:50:11Z</time>
      </trkpt>
      <trkpt lat="59.8981674" lon="17.6779681">
        <ele>20.8057</ele>
        <time>2012-07-20T18:50:18Z</time>
      </trkpt>
      <trkpt lat="59.8983254" lon="17.6770841">
        <ele>21.767</ele>
        <time>2012-07-20T18:50:26Z</time>
      </trkpt>
      <trkpt lat="59.8983998" lon="17.6762042">
        <ele>24.1703</ele>
        <time>2012-07-20T18:50:34Z</time>
      </trkpt>
      <trkpt lat="59.8984356" lon="17.6755912">
        <ele>26.0929</ele>
        <time>2012-07-20T18:50:40Z</time>
      </trkpt>
      <trkpt lat="59.8984701" lon="17.6753198">
        <ele>26.5736</ele>
        <time>2012-07-20T18:50:43Z</time>
      </trkpt>
      <trkpt lat="59.898544" lon="17.6750538">
        <ele>28.0155</ele>
        <time>2012-07-20T18:50:46Z</time>
      </trkpt>
      <trkpt lat="59.8987462" lon="17.6746547">
        <ele>27.5349</ele>
        <time>2012-07-20T18:50:52Z</time>
      </trkpt>
      <trkpt lat="59.8988414" lon="17.6745303">
        <ele>27.0543</ele>
        <time>2012-07-20T18:50:55Z</time>
      </trkpt>
      <trkpt lat="59.8990066" lon="17.6742767">
        <ele>28.9769</ele>
        <time>2012-07-20T18:51:00Z</time>
      </trkpt>
      <trkpt lat="59.8990818" lon="17.6738728">
        <ele>29.4575</ele>
        <time>2012-07-20T18:51:04Z</time>
      </trkpt>
      <trkpt lat="59.8990945" lon="17.6737523">
        <ele>28.9769</ele>
        <time>2012-07-20T18:51:05Z</time>
      </trkpt>
      <trkpt lat="59.89911" lon="17.6735467">
        <ele>29.9381</ele>
        <time>2012-07-20T18:51:07Z</time>
      </trkpt>
      <trkpt lat="59.8991342" lon="17.6733716">
        <ele>31.3801</ele>
        <time>2012-07-20T18:51:09Z</time>
      </trkpt>
      <trkpt lat="59.8991864" lon="17.6730194">
        <ele>32.3416</ele>
        <time>2012-07-20T18:51:13Z</time>
      </trkpt>
      <trkpt lat="59.8993043" lon="17.672413">
        <ele>34.2642</ele>
        <time>2012-07-20T18:51:19Z</time>
      </trkpt>
      <trkpt lat="59.89933" lon="17.6721777">
        <ele>34.7449</ele>
        <time>2012-07-20T18:51:21Z</time>
      </trkpt>
      <trkpt lat="59.8993573" lon="17.6716637">
        <ele>30.4188</ele>
        <time>2012-07-20T18:51:25Z</time>
      </trkpt>
      <trkpt lat="59.899352" lon="17.6710064">
        <ele>28.9769</ele>
        <time>2012-07-20T18:51:30Z</time>
      </trkpt>
      <trkpt lat="59.8993485" lon="17.6707755">
        <ele>29.9381</ele>
        <time>2012-07-20T18:51:32Z</time>
      </trkpt>
      <trkpt lat="59.8994541" lon="17.6701859">
        <ele>30.8995</ele>
        <time>2012-07-20T18:51:37Z</time>
      </trkpt>
      <trkpt lat="59.8996754" lon="17.6701248">
        <ele>32.3416</ele>
        <time>2012-07-20T18:51:41Z</time>
      </trkpt>
      <trkpt lat="59.9000354" lon="17.6699877">
        <ele>30.8995</ele>
        <time>2012-07-20T18:51:48Z</time>
      </trkpt>
      <trkpt lat="59.9004735" lon="17.669841">
        <ele>27.0543</ele>
        <time>2012-07-20T18:51:55Z</time>
      </trkpt>
      <trkpt lat="59.9006456" lon="17.6697555">
        <ele>23.6896</ele>
        <time>2012-07-20T18:51:58Z</time>
      </trkpt>
      <trkpt lat="59.9008914" lon="17.6696844">
        <ele>22.2476</ele>
        <time>2012-07-20T18:52:03Z</time>
      </trkpt>
      <trkpt lat="59.9009803" lon="17.6696596">
        <ele>21.767</ele>
        <time>2012-07-20T18:52:05Z</time>
      </trkpt>
      <trkpt lat="59.901178" lon="17.6696503">
        <ele>24.1703</ele>
        <time>2012-07-20T18:52:09Z</time>
      </trkpt>
      <trkpt lat="59.901418" lon="17.6695924">
        <ele>25.6123</ele>
        <time>2012-07-20T18:52:13Z</time>
      </trkpt>
      <trkpt lat="59.9017478" lon="17.6696908">
        <ele>23.209</ele>
        <time>2012-07-20T18:52:19Z</time>
      </trkpt>
      <trkpt lat="59.9020352" lon="17.6698884">
        <ele>20.325</ele>
        <time>2012-07-20T18:52:24Z</time>
      </trkpt>
      <trkpt lat="59.9024399" lon="17.6699359">
        <ele>19.8444</ele>
        <time>2012-07-20T18:52:30Z</time>
      </trkpt>
      <trkpt lat="59.9026524" lon="17.6698556">
        <ele>21.2864</ele>
        <time>2012-07-20T18:52:34Z</time>
      </trkpt>
      <trkpt lat="59.9027413" lon="17.6698297">
        <ele>20.8057</ele>
        <time>2012-07-20T18:52:36Z</time>
      </trkpt>
      <trkpt lat="59.9028936" lon="17.6698456">
        <ele>20.8057</ele>
        <time>2012-07-20T18:52:39Z</time>
      </trkpt>
      <trkpt lat="59.9030218" lon="17.6698653">
        <ele>19.8444</ele>
        <time>2012-07-20T18:52:41Z</time>
      </trkpt>
      <trkpt lat="59.9033002" lon="17.6699364">
        <ele>21.2864</ele>
        <time>2012-07-20T18:52:45Z</time>
      </trkpt>
      <trkpt lat="59.9034475" lon="17.6697695">
        <ele>22.7283</ele>
        <time>2012-07-20T18:52:48Z</time>
      </trkpt>
      <trkpt lat="59.9035734" lon="17.6694567">
        <ele>24.1703</ele>
        <time>2012-07-20T18:52:52Z</time>
      </trkpt>
      <trkpt lat="59.9037645" lon="17.6688283">
        <ele>26.0929</ele>
        <time>2012-07-20T18:52:58Z</time>
      </trkpt>
      <trkpt lat="59.903906" lon="17.6683766">
        <ele>23.6896</ele>
        <time>2012-07-20T18:53:02Z</time>
      </trkpt>
      <trkpt lat="59.9042389" lon="17.667934">
        <ele>20.8057</ele>
        <time>2012-07-20T18:53:10Z</time>
      </trkpt>
      <trkpt lat="59.9046187" lon="17.6678924">
        <ele>22.2476</ele>
        <time>2012-07-20T18:53:17Z</time>
      </trkpt>
      <trkpt lat="59.9048849" lon="17.6679203">
        <ele>24.1703</ele>
        <time>2012-07-20T18:53:21Z</time>
      </trkpt>
      <trkpt lat="59.9054515" lon="17.6682222">
        <ele>21.2864</ele>
        <time>2012-07-20T18:53:29Z</time>
      </trkpt>
      <trkpt lat="59.9059418" lon="17.6684412">
        <ele>29.4575</ele>
        <time>2012-07-20T18:53:36Z</time>
      </trkpt>
      <trkpt lat="59.9063509" lon="17.6685877">
        <ele>33.7834</ele>
        <time>2012-07-20T18:53:43Z</time>
      </trkpt>
      <trkpt lat="59.9066807" lon="17.6685683">
        <ele>36.6675</ele>
        <time>2012-07-20T18:53:49Z</time>
      </trkpt>
      <trkpt lat="59.9067374" lon="17.66855">
        <ele>36.6675</ele>
        <time>2012-07-20T18:53:50Z</time>
      </trkpt>
      <trkpt lat="59.9070967" lon="17.6684228">
        <ele>34.7449</ele>
        <time>2012-07-20T18:53:57Z</time>
      </trkpt>
      <trkpt lat="59.9074555" lon="17.668306">
        <ele>31.3801</ele>
        <time>2012-07-20T18:54:03Z</time>
      </trkpt>
      <trkpt lat="59.9076739" lon="17.6680172">
        <ele>28.9769</ele>
        <time>2012-07-20T18:54:08Z</time>
      </trkpt>
      <trkpt lat="59.90773" lon="17.6677364">
        <ele>28.4962</ele>
        <time>2012-07-20T18:54:11Z</time>
      </trkpt>
      <trkpt lat="59.9077808" lon="17.6668719">
        <ele>27.5349</ele>
        <time>2012-07-20T18:54:19Z</time>
      </trkpt>
      <trkpt lat="59.9077853" lon="17.6667603">
        <ele>28.0155</ele>
        <time>2012-07-20T18:54:20Z</time>
      </trkpt>
      <trkpt lat="59.9078048" lon="17.6662179">
        <ele>29.4575</ele>
        <time>2012-07-20T18:54:25Z</time>
      </trkpt>
      <trkpt lat="59.907822" lon="17.6661205">
        <ele>28.9769</ele>
        <time>2012-07-20T18:54:26Z</time>
      </trkpt>
      <trkpt lat="59.9078365" lon="17.6659187">
        <ele>29.9381</ele>
        <time>2012-07-20T18:54:28Z</time>
      </trkpt>
      <trkpt lat="59.9078742" lon="17.6654808">
        <ele>29.4575</ele>
        <time>2012-07-20T18:54:32Z</time>
      </trkpt>
      <trkpt lat="59.9079063" lon="17.665258">
        <ele>31.8607</ele>
        <time>2012-07-20T18:54:34Z</time>
      </trkpt>
      <trkpt lat="59.9079755" lon="17.6646174">
        <ele>30.4188</ele>
        <time>2012-07-20T18:54:40Z</time>
      </trkpt>
      <trkpt lat="59.9079382" lon="17.6637519">
        <ele>29.9381</ele>
        <time>2012-07-20T18:54:47Z</time>
      </trkpt>
      <trkpt lat="59.9078551" lon="17.6630182">
        <ele>27.5349</ele>
        <time>2012-07-20T18:54:53Z</time>
      </trkpt>
      <trkpt lat="59.9077542" lon="17.6621599">
        <ele>26.5736</ele>
        <time>2012-07-20T18:55:00Z</time>
      </trkpt>
      <trkpt lat="59.9076903" lon="17.6614383">
        <ele>27.5349</ele>
        <time>2012-07-20T18:55:06Z</time>
      </trkpt>
      <trkpt lat="59.9076035" lon="17.6607619">
        <ele>27.5349</ele>
        <time>2012-07-20T18:55:12Z</time>
      </trkpt>
      <trkpt lat="59.9075332" lon="17.6602852">
        <ele>26.0929</ele>
        <time>2012-07-20T18:55:16Z</time>
      </trkpt>
      <trkpt lat="59.9074305" lon="17.6594227">
        <ele>25.6123</ele>
        <time>2012-07-20T18:55:23Z</time>
      </trkpt>
      <trkpt lat="59.9073343" lon="17.6585808">
        <ele>26.5736</ele>
        <time>2012-07-20T18:55:30Z</time>
      </trkpt>
      <trkpt lat="59.9071875" lon="17.6575367">
        <ele>25.6123</ele>
        <time>2012-07-20T18:55:38Z</time>
      </trkpt>
      <trkpt lat="59.9070907" lon="17.6567675">
        <ele>26.0929</ele>
        <time>2012-07-20T18:55:44Z</time>
      </trkpt>
      <trkpt lat="59.907058" lon="17.6556991">
        <ele>25.1317</ele>
        <time>2012-07-20T18:55:52Z</time>
      </trkpt>
      <trkpt lat="59.9070734" lon="17.6544027">
        <ele>24.651</ele>
        <time>2012-07-20T18:56:01Z</time>
      </trkpt>
      <trkpt lat="59.9071088" lon="17.6531806">
        <ele>25.1317</ele>
        <time>2012-07-20T18:56:10Z</time>
      </trkpt>
      <trkpt lat="59.9070921" lon="17.6521368">
        <ele>23.209</ele>
        <time>2012-07-20T18:56:18Z</time>
      </trkpt>
      <trkpt lat="59.9070312" lon="17.6516412">
        <ele>23.209</ele>
        <time>2012-07-20T18:56:22Z</time>
      </trkpt>
      <trkpt lat="59.9068103" lon="17.6506637">
        <ele>23.6896</ele>
        <time>2012-07-20T18:56:30Z</time>
      </trkpt>
      <trkpt lat="59.9065458" lon="17.6495423">
        <ele>23.209</ele>
        <time>2012-07-20T18:56:39Z</time>
      </trkpt>
      <trkpt lat="59.90632" lon="17.6488077">
        <ele>20.8057</ele>
        <time>2012-07-20T18:56:45Z</time>
      </trkpt>
      <trkpt lat="59.906076" lon="17.6480922">
        <ele>20.325</ele>
        <time>2012-07-20T18:56:51Z</time>
      </trkpt>
      <trkpt lat="59.9059778" lon="17.6472977">
        <ele>20.325</ele>
        <time>2012-07-20T18:56:57Z</time>
      </trkpt>
      <trkpt lat="59.9059848" lon="17.6470412">
        <ele>20.325</ele>
        <time>2012-07-20T18:56:59Z</time>
      </trkpt>
      <trkpt lat="59.9060903" lon="17.6460374">
        <ele>19.8444</ele>
        <time>2012-07-20T18:57:07Z</time>
      </trkpt>
      <trkpt lat="59.9061904" lon="17.6451846">
        <ele>19.8444</ele>
        <time>2012-07-20T18:57:14Z</time>
      </trkpt>
      <trkpt lat="59.9061924" lon="17.6450514">
        <ele>19.8444</ele>
        <time>2012-07-20T18:57:15Z</time>
      </trkpt>
      <trkpt lat="59.9061316" lon="17.6445212">
        <ele>19.3638</ele>
        <time>2012-07-20T18:57:19Z</time>
      </trkpt>
      <trkpt lat="59.9059138" lon="17.6437272">
        <ele>16.9604</ele>
        <time>2012-07-20T18:57:26Z</time>
      </trkpt>
      <trkpt lat="59.9058941" lon="17.6436322">
        <ele>17.4412</ele>
        <time>2012-07-20T18:57:27Z</time>
      </trkpt>
      <trkpt lat="59.9059303" lon="17.6433747">
        <ele>17.9218</ele>
        <time>2012-07-20T18:57:31Z</time>
      </trkpt>
      <trkpt lat="59.9060081" lon="17.6433767">
        <ele>18.4023</ele>
        <time>2012-07-20T18:57:33Z</time>
      </trkpt>
      <trkpt lat="59.9064197" lon="17.6435953">
        <ele>13.5958</ele>
        <time>2012-07-20T18:57:42Z</time>
      </trkpt>
      <trkpt lat="59.9068292" lon="17.6437752">
        <ele>13.1151</ele>
        <time>2012-07-20T18:57:51Z</time>
      </trkpt>
      <trkpt lat="59.9070988" lon="17.6438353">
        <ele>8.30859</ele>
        <time>2012-07-20T18:57:58Z</time>
      </trkpt>
      <trkpt lat="59.9073979" lon="17.6439094">
        <ele>7.34717</ele>
        <time>2012-07-20T18:58:05Z</time>
      </trkpt>
      <trkpt lat="59.9074422" lon="17.643918">
        <ele>7.34717</ele>
        <time>2012-07-20T18:58:06Z</time>
      </trkpt>
      <trkpt lat="59.9076318" lon="17.6438488">
        <ele>5.90527</ele>
        <time>2012-07-20T18:58:10Z</time>
      </trkpt>
      <trkpt lat="59.908064" lon="17.6438823">
        <ele>7.82788</ele>
        <time>2012-07-20T18:58:18Z</time>
      </trkpt>
      <trkpt lat="59.9081591" lon="17.6438855">
        <ele>9.2699</ele>
        <time>2012-07-20T18:58:20Z</time>
      </trkpt>
      <trkpt lat="59.908294" lon="17.6437623">
        <ele>10.2312</ele>
        <time>2012-07-20T18:58:24Z</time>
      </trkpt>
      <trkpt lat="59.9083117" lon="17.6437462">
        <ele>9.75061</ele>
        <time>2012-07-20T18:58:25Z</time>
      </trkpt>
      <trkpt lat="59.9083365" lon="17.6437319">
        <ele>12.1538</ele>
        <time>2012-07-20T18:58:28Z</time>
      </trkpt>
      <trkpt lat="59.9084423" lon="17.6437761">
        <ele>23.6896</ele>
        <time>2012-07-20T18:59:30Z</time>
      </trkpt>
      <trkpt lat="59.9084675" lon="17.6437758">
        <ele>23.209</ele>
        <time>2012-07-20T18:59:31Z</time>
      </trkpt>
      <trkpt lat="59.9086608" lon="17.6437782">
        <ele>21.2864</ele>
        <time>2012-07-20T18:59:35Z</time>
      </trkpt>
      <trkpt lat="59.909023" lon="17.6437608">
        <ele>16.4797</ele>
        <time>2012-07-20T18:59:42Z</time>
      </trkpt>
      <trkpt lat="59.909505" lon="17.6436825">
        <ele>13.5958</ele>
        <time>2012-07-20T18:59:50Z</time>
      </trkpt>
      <trkpt lat="59.909694" lon="17.6436295">
        <ele>14.0764</ele>
        <time>2012-07-20T18:59:53Z</time>
      </trkpt>
      <trkpt lat="59.9099951" lon="17.643685">
        <ele>15.5184</ele>
        <time>2012-07-20T18:59:58Z</time>
      </trkpt>
      <trkpt lat="59.9100434" lon="17.6437007">
        <ele>15.999</ele>
        <time>2012-07-20T18:59:59Z</time>
      </trkpt>
      <trkpt lat="59.9103633" lon="17.6436717">
        <ele>17.9218</ele>
        <time>2012-07-20T19:00:06Z</time>
      </trkpt>
      <trkpt lat="59.9105546" lon="17.6435682">
        <ele>16.9604</ele>
        <time>2012-07-20T19:00:10Z</time>
      </trkpt>
      <trkpt lat="59.9109989" lon="17.643491">
        <ele>17.9218</ele>
        <time>2012-07-20T19:00:18Z</time>
      </trkpt>
      <trkpt lat="59.9114311" lon="17.6433929">
        <ele>16.9604</ele>
        <time>2012-07-20T19:00:26Z</time>
      </trkpt>
      <trkpt lat="59.9118324" lon="17.6433241">
        <ele>15.5184</ele>
        <time>2012-07-20T19:00:33Z</time>
      </trkpt>
      <trkpt lat="59.9122009" lon="17.6431961">
        <ele>13.1151</ele>
        <time>2012-07-20T19:00:39Z</time>
      </trkpt>
      <trkpt lat="59.9125515" lon="17.6431473">
        <ele>13.1151</ele>
        <time>2012-07-20T19:00:44Z</time>
      </trkpt>
      <trkpt lat="59.9127896" lon="17.6431962">
        <ele>17.9218</ele>
        <time>2012-07-20T19:00:48Z</time>
      </trkpt>
      <trkpt lat="59.9128856" lon="17.6431691">
        <ele>18.4023</ele>
        <time>2012-07-20T19:00:50Z</time>
      </trkpt>
      <trkpt lat="59.9132385" lon="17.6430976">
        <ele>19.3638</ele>
        <time>2012-07-20T19:00:56Z</time>
      </trkpt>
      <trkpt lat="59.9135626" lon="17.6430488">
        <ele>21.767</ele>
        <time>2012-07-20T19:01:01Z</time>
      </trkpt>
      <trkpt lat="59.9140326" lon="17.6429986">
        <ele>24.1703</ele>
        <time>2012-07-20T19:01:08Z</time>
      </trkpt>
      <trkpt lat="59.9145144" lon="17.6429001">
        <ele>19.8444</ele>
        <time>2012-07-20T19:01:15Z</time>
      </trkpt>
      <trkpt lat="59.9150492" lon="17.6427768">
        <ele>10.7118</ele>
        <time>2012-07-20T19:01:23Z</time>
      </trkpt>
      <trkpt lat="59.9152439" lon="17.6426551">
        <ele>11.6732</ele>
        <time>2012-07-20T19:01:26Z</time>
      </trkpt>
      <trkpt lat="59.9156103" lon="17.642523">
        <ele>9.75061</ele>
        <time>2012-07-20T19:01:31Z</time>
      </trkpt>
      <trkpt lat="59.9161068" lon="17.6425215">
        <ele>14.0764</ele>
        <time>2012-07-20T19:01:38Z</time>
      </trkpt>
      <trkpt lat="59.9166042" lon="17.6424686">
        <ele>12.1538</ele>
        <time>2012-07-20T19:01:46Z</time>
      </trkpt>
      <trkpt lat="59.917068" lon="17.6423714">
        <ele>7.34717</ele>
        <time>2012-07-20T19:01:53Z</time>
      </trkpt>
      <trkpt lat="59.9171399" lon="17.6423481">
        <ele>6.86646</ele>
        <time>2012-07-20T19:01:54Z</time>
      </trkpt>
      <trkpt lat="59.9176151" lon="17.6423519">
        <ele>3.98267</ele>
        <time>2012-07-20T19:02:01Z</time>
      </trkpt>
      <trkpt lat="59.918117" lon="17.642307">
        <ele>5.42456</ele>
        <time>2012-07-20T19:02:09Z</time>
      </trkpt>
      <trkpt lat="59.9185888" lon="17.6422632">
        <ele>8.30859</ele>
        <time>2012-07-20T19:02:18Z</time>
      </trkpt>
      <trkpt lat="59.9191666" lon="17.6421946">
        <ele>8.30859</ele>
        <time>2012-07-20T19:02:29Z</time>
      </trkpt>
      <trkpt lat="59.9196315" lon="17.6421495">
        <ele>6.86646</ele>
        <time>2012-07-20T19:02:37Z</time>
      </trkpt>
      <trkpt lat="59.9201705" lon="17.6420623">
        <ele>4.46326</ele>
        <time>2012-07-20T19:02:46Z</time>
      </trkpt>
      <trkpt lat="59.9206932" lon="17.6420485">
        <ele>7.34717</ele>
        <time>2012-07-20T19:02:54Z</time>
      </trkpt>
      <trkpt lat="59.9210738" lon="17.6420404">
        <ele>11.1925</ele>
        <time>2012-07-20T19:03:00Z</time>
      </trkpt>
      <trkpt lat="59.9214147" lon="17.641986">
        <ele>11.6732</ele>
        <time>2012-07-20T19:03:06Z</time>
      </trkpt>
      <trkpt lat="59.9217654" lon="17.6419431">
        <ele>11.6732</ele>
        <time>2012-07-20T19:03:12Z</time>
      </trkpt>
      <trkpt lat="59.9222514" lon="17.64187">
        <ele>4.94385</ele>
        <time>2012-07-20T19:03:20Z</time>
      </trkpt>
      <trkpt lat="59.9228458" lon="17.6417748">
        <ele>3.02124</ele>
        <time>2012-07-20T19:03:30Z</time>
      </trkpt>
      <trkpt lat="59.9233168" lon="17.6417337">
        <ele>2.06006</ele>
        <time>2012-07-20T19:03:37Z</time>
      </trkpt>
      <trkpt lat="59.9239266" lon="17.6416519">
        <ele>0.618042</ele>
        <time>2012-07-20T19:03:45Z</time>
      </trkpt>
      <trkpt lat="59.9244428" lon="17.6416077">
        <ele>3.02124</ele>
        <time>2012-07-20T19:03:52Z</time>
      </trkpt>
      <trkpt lat="59.9250602" lon="17.6415116">
        <ele>3.02124</ele>
        <time>2012-07-20T19:04:01Z</time>
      </trkpt>
      <trkpt lat="59.925644" lon="17.6414706">
        <ele>3.50195</ele>
        <time>2012-07-20T19:04:09Z</time>
      </trkpt>
      <trkpt lat="59.9263188" lon="17.6413748">
        <ele>2.54065</ele>
        <time>2012-07-20T19:04:18Z</time>
      </trkpt>
      <trkpt lat="59.9270341" lon="17.6413075">
        <ele>0.618042</ele>
        <time>2012-07-20T19:04:28Z</time>
      </trkpt>
      <trkpt lat="59.9276381" lon="17.6412684">
        <ele>0</ele>
        <time>2012-07-20T19:04:37Z</time>
      </trkpt>
      <trkpt lat="59.9284171" lon="17.6411826">
        <ele>0</ele>
        <time>2012-07-20T19:04:49Z</time>
      </trkpt>
      <trkpt lat="59.9289704" lon="17.6410676">
        <ele>0</ele>
        <time>2012-07-20T19:04:58Z</time>
      </trkpt>
      <trkpt lat="59.92945" lon="17.6410234">
        <ele>0</ele>
        <time>2012-07-20T19:05:06Z</time>
      </trkpt>
      <trkpt lat="59.929677" lon="17.6409695">
        <ele>0</ele>
        <time>2012-07-20T19:05:10Z</time>
      </trkpt>
      <trkpt lat="59.9301424" lon="17.6409703">
        <ele>0</ele>
        <time>2012-07-20T19:05:18Z</time>
      </trkpt>
      <trkpt lat="59.9305369" lon="17.6409605">
        <ele>0</ele>
        <time>2012-07-20T19:05:25Z</time>
      </trkpt>
      <trkpt lat="59.9307979" lon="17.6409621">
        <ele>0.137451</ele>
        <time>2012-07-20T19:05:30Z</time>
      </trkpt>
      <trkpt lat="59.9308539" lon="17.6409819">
        <ele>0.137451</ele>
        <time>2012-07-20T19:05:31Z</time>
      </trkpt>
      <trkpt lat="59.9311921" lon="17.6412171">
        <ele>0.618042</ele>
        <time>2012-07-20T19:05:38Z</time>
      </trkpt>
      <trkpt lat="59.9313062" lon="17.6412822">
        <ele>2.06006</ele>
        <time>2012-07-20T19:05:41Z</time>
      </trkpt>
      <trkpt lat="59.9316535" lon="17.641524">
        <ele>1.09863</ele>
        <time>2012-07-20T19:05:50Z</time>
      </trkpt>
      <trkpt lat="59.9318707" lon="17.6416559">
        <ele>0</ele>
        <time>2012-07-20T19:05:55Z</time>
      </trkpt>
      <trkpt lat="59.9321603" lon="17.6419192">
        <ele>0</ele>
        <time>2012-07-20T19:06:02Z</time>
      </trkpt>
      <trkpt lat="59.9326113" lon="17.6423601">
        <ele>0</ele>
        <time>2012-07-20T19:06:11Z</time>
      </trkpt>
      <trkpt lat="59.932655" lon="17.6424215">
        <ele>0</ele>
        <time>2012-07-20T19:06:12Z</time>
      </trkpt>
      <trkpt lat="59.9328042" lon="17.6426936">
        <ele>0</ele>
        <time>2012-07-20T19:06:16Z</time>
      </trkpt>
      <trkpt lat="59.9331481" lon="17.6431113">
        <ele>3.50195</ele>
        <time>2012-07-20T19:06:24Z</time>
      </trkpt>
      <trkpt lat="59.9332671" lon="17.6433013">
        <ele>4.94385</ele>
        <time>2012-07-20T19:06:28Z</time>
      </trkpt>
      <trkpt lat="59.9334686" lon="17.6435655">
        <ele>6.86646</ele>
        <time>2012-07-20T19:06:36Z</time>
      </trkpt>
      <trkpt lat="59.9336584" lon="17.6437837">
        <ele>11.6732</ele>
        <time>2012-07-20T19:06:43Z</time>
      </trkpt>
      <trkpt lat="59.9339338" lon="17.6440368">
        <ele>9.75061</ele>
        <time>2012-07-20T19:06:52Z</time>
      </trkpt>
      <trkpt lat="59.9341721" lon="17.6443425">
        <ele>9.75061</ele>
        <time>2012-07-20T19:06:59Z</time>
      </trkpt>
      <trkpt lat="59.9343131" lon="17.6445201">
        <ele>9.2699</ele>
        <time>2012-07-20T19:07:03Z</time>
      </trkpt>
      <trkpt lat="59.9344945" lon="17.6448242">
        <ele>10.7118</ele>
        <time>2012-07-20T19:07:10Z</time>
      </trkpt>
      <trkpt lat="59.9347458" lon="17.6451381">
        <ele>13.1151</ele>
        <time>2012-07-20T19:07:18Z</time>
      </trkpt>
      <trkpt lat="59.9349815" lon="17.6454584">
        <ele>15.0377</ele>
        <time>2012-07-20T19:07:25Z</time>
      </trkpt>
      <trkpt lat="59.9352932" lon="17.6458201">
        <ele>17.9218</ele>
        <time>2012-07-20T19:07:32Z</time>
      </trkpt>
      <trkpt lat="59.9355919" lon="17.6461576">
        <ele>17.4412</ele>
        <time>2012-07-20T19:07:39Z</time>
      </trkpt>
      <trkpt lat="59.9359329" lon="17.6465702">
        <ele>23.6896</ele>
        <time>2012-07-20T19:07:47Z</time>
      </trkpt>
      <trkpt lat="59.9363054" lon="17.6470134">
        <ele>23.6896</ele>
        <time>2012-07-20T19:07:55Z</time>
      </trkpt>
      <trkpt lat="59.9366675" lon="17.6474975">
        <ele>26.0929</ele>
        <time>2012-07-20T19:08:02Z</time>
      </trkpt>
      <trkpt lat="59.9371455" lon="17.6480862">
        <ele>31.3801</ele>
        <time>2012-07-20T19:08:11Z</time>
      </trkpt>
      <trkpt lat="59.9373823" lon="17.6484275">
        <ele>29.4575</ele>
        <time>2012-07-20T19:08:16Z</time>
      </trkpt>
      <trkpt lat="59.9374849" lon="17.6487922">
        <ele>22.2476</ele>
        <time>2012-07-20T19:08:21Z</time>
      </trkpt>
      <trkpt lat="59.9375449" lon="17.648941">
        <ele>22.7283</ele>
        <time>2012-07-20T19:08:23Z</time>
      </trkpt>
      <trkpt lat="59.9377438" lon="17.6493256">
        <ele>23.6896</ele>
        <time>2012-07-20T19:08:28Z</time>
      </trkpt>
      <trkpt lat="59.9379927" lon="17.6500256">
        <ele>18.8831</ele>
        <time>2012-07-20T19:08:35Z</time>
      </trkpt>
      <trkpt lat="59.938308" lon="17.6508842">
        <ele>16.9604</ele>
        <time>2012-07-20T19:08:43Z</time>
      </trkpt>
      <trkpt lat="59.9384001" lon="17.651079">
        <ele>16.4797</ele>
        <time>2012-07-20T19:08:45Z</time>
      </trkpt>
      <trkpt lat="59.9387038" lon="17.6520255">
        <ele>16.9604</ele>
        <time>2012-07-20T19:08:54Z</time>
      </trkpt>
      <trkpt lat="59.9389551" lon="17.6529409">
        <ele>16.9604</ele>
        <time>2012-07-20T19:09:03Z</time>
      </trkpt>
      <trkpt lat="59.9391699" lon="17.6538423">
        <ele>17.9218</ele>
        <time>2012-07-20T19:09:12Z</time>
      </trkpt>
      <trkpt lat="59.9393521" lon="17.6547626">
        <ele>20.8057</ele>
        <time>2012-07-20T19:09:21Z</time>
      </trkpt>
      <trkpt lat="59.9395227" lon="17.6556228">
        <ele>21.767</ele>
        <time>2012-07-20T19:09:29Z</time>
      </trkpt>
      <trkpt lat="59.9398321" lon="17.6571167">
        <ele>18.8831</ele>
        <time>2012-07-20T19:09:42Z</time>
      </trkpt>
      <trkpt lat="59.9400884" lon="17.6583904">
        <ele>17.4412</ele>
        <time>2012-07-20T19:09:52Z</time>
      </trkpt>
      <trkpt lat="59.9402966" lon="17.6594224">
        <ele>16.9604</ele>
        <time>2012-07-20T19:10:00Z</time>
      </trkpt>
      <trkpt lat="59.9404048" lon="17.6599682">
        <ele>18.4023</ele>
        <time>2012-07-20T19:10:05Z</time>
      </trkpt>
      <trkpt lat="59.9404327" lon="17.6600723">
        <ele>17.4412</ele>
        <time>2012-07-20T19:10:06Z</time>
      </trkpt>
      <trkpt lat="59.940421" lon="17.6602198">
        <ele>15.999</ele>
        <time>2012-07-20T19:10:08Z</time>
      </trkpt>
      <trkpt lat="59.9403987" lon="17.6607225">
        <ele>14.0764</ele>
        <time>2012-07-20T19:10:12Z</time>
      </trkpt>
      <trkpt lat="59.94035" lon="17.6609714">
        <ele>14.557</ele>
        <time>2012-07-20T19:10:14Z</time>
      </trkpt>
      <trkpt lat="59.9403717" lon="17.6616772">
        <ele>19.3638</ele>
        <time>2012-07-20T19:10:19Z</time>
      </trkpt>
      <trkpt lat="59.9404888" lon="17.6619898">
        <ele>20.325</ele>
        <time>2012-07-20T19:10:22Z</time>
      </trkpt>
      <trkpt lat="59.9406606" lon="17.662147">
        <ele>22.2476</ele>
        <time>2012-07-20T19:10:25Z</time>
      </trkpt>
      <trkpt lat="59.9411311" lon="17.6623284">
        <ele>22.2476</ele>
        <time>2012-07-20T19:10:33Z</time>
      </trkpt>
      <trkpt lat="59.9415115" lon="17.6627127">
        <ele>23.209</ele>
        <time>2012-07-20T19:10:40Z</time>
      </trkpt>
      <trkpt lat="59.9418843" lon="17.6633561">
        <ele>23.209</ele>
        <time>2012-07-20T19:10:48Z</time>
      </trkpt>
      <trkpt lat="59.9423361" lon="17.6640243">
        <ele>22.7283</ele>
        <time>2012-07-20T19:10:57Z</time>
      </trkpt>
      <trkpt lat="59.9427888" lon="17.66457">
        <ele>22.7283</ele>
        <time>2012-07-20T19:11:05Z</time>
      </trkpt>
      <trkpt lat="59.9432629" lon="17.6650221">
        <ele>23.209</ele>
        <time>2012-07-20T19:11:13Z</time>
      </trkpt>
      <trkpt lat="59.9438688" lon="17.6654657">
        <ele>22.2476</ele>
        <time>2012-07-20T19:11:22Z</time>
      </trkpt>
      <trkpt lat="59.9443941" lon="17.6656986">
        <ele>20.325</ele>
        <time>2012-07-20T19:11:29Z</time>
      </trkpt>
      <trkpt lat="59.945164" lon="17.6659829">
        <ele>16.4797</ele>
        <time>2012-07-20T19:11:39Z</time>
      </trkpt>
      <trkpt lat="59.946007" lon="17.6663005">
        <ele>15.0377</ele>
        <time>2012-07-20T19:11:50Z</time>
      </trkpt>
      <trkpt lat="59.9463703" lon="17.6665148">
        <ele>15.0377</ele>
        <time>2012-07-20T19:11:55Z</time>
      </trkpt>
      <trkpt lat="59.9468198" lon="17.6666397">
        <ele>14.557</ele>
        <time>2012-07-20T19:12:01Z</time>
      </trkpt>
      <trkpt lat="59.9474903" lon="17.6669412">
        <ele>13.1151</ele>
        <time>2012-07-20T19:12:10Z</time>
      </trkpt>
      <trkpt lat="59.9480705" lon="17.6672302">
        <ele>12.6344</ele>
        <time>2012-07-20T19:12:18Z</time>
      </trkpt>
      <trkpt lat="59.9486257" lon="17.667538">
        <ele>12.1538</ele>
        <time>2012-07-20T19:12:26Z</time>
      </trkpt>
      <trkpt lat="59.9493161" lon="17.6679352">
        <ele>12.6344</ele>
        <time>2012-07-20T19:12:36Z</time>
      </trkpt>
      <trkpt lat="59.9498115" lon="17.6681658">
        <ele>11.1925</ele>
        <time>2012-07-20T19:12:43Z</time>
      </trkpt>
      <trkpt lat="59.9502994" lon="17.6683144">
        <ele>12.6344</ele>
        <time>2012-07-20T19:12:50Z</time>
      </trkpt>
      <trkpt lat="59.9508313" lon="17.668289">
        <ele>12.1538</ele>
        <time>2012-07-20T19:12:57Z</time>
      </trkpt>
      <trkpt lat="59.9514401" lon="17.6681">
        <ele>9.2699</ele>
        <time>2012-07-20T19:13:05Z</time>
      </trkpt>
      <trkpt lat="59.9515129" lon="17.6680891">
        <ele>8.78918</ele>
        <time>2012-07-20T19:13:06Z</time>
      </trkpt>
      <trkpt lat="59.9517409" lon="17.6683569">
        <ele>8.78918</ele>
        <time>2012-07-20T19:13:10Z</time>
      </trkpt>
      <trkpt lat="59.95177" lon="17.6684745">
        <ele>8.78918</ele>
        <time>2012-07-20T19:13:11Z</time>
      </trkpt>
      <trkpt lat="59.9518028" lon="17.6687059">
        <ele>7.34717</ele>
        <time>2012-07-20T19:13:13Z</time>
      </trkpt>
      <trkpt lat="59.9518111" lon="17.6692313">
        <ele>8.30859</ele>
        <time>2012-07-20T19:13:18Z</time>
      </trkpt>
      <trkpt lat="59.9517823" lon="17.6701823">
        <ele>10.2312</ele>
        <time>2012-07-20T19:13:27Z</time>
      </trkpt>
      <trkpt lat="59.9517343" lon="17.6707957">
        <ele>11.6732</ele>
        <time>2012-07-20T19:13:33Z</time>
      </trkpt>
      <trkpt lat="59.9517644" lon="17.6711604">
        <ele>13.1151</ele>
        <time>2012-07-20T19:13:37Z</time>
      </trkpt>
      <trkpt lat="59.9517979" lon="17.67165">
        <ele>14.0764</ele>
        <time>2012-07-20T19:13:43Z</time>
      </trkpt>
      <trkpt lat="59.951797" lon="17.6717333">
        <ele>14.0764</ele>
        <time>2012-07-20T19:13:44Z</time>
      </trkpt>
      <trkpt lat="59.9518391" lon="17.672375">
        <ele>14.557</ele>
        <time>2012-07-20T19:13:51Z</time>
      </trkpt>
      <trkpt lat="59.9519321" lon="17.6731558">
        <ele>17.4412</ele>
        <time>2012-07-20T19:13:59Z</time>
      </trkpt>
      <trkpt lat="59.9520819" lon="17.6740475">
        <ele>21.2864</ele>
        <time>2012-07-20T19:14:08Z</time>
      </trkpt>
      <trkpt lat="59.9522036" lon="17.6747143">
        <ele>19.3638</ele>
        <time>2012-07-20T19:14:15Z</time>
      </trkpt>
      <trkpt lat="59.9522539" lon="17.6750481">
        <ele>17.9218</ele>
        <time>2012-07-20T19:14:20Z</time>
      </trkpt>
      <trkpt lat="59.9523741" lon="17.6754327">
        <ele>20.325</ele>
        <time>2012-07-20T19:14:26Z</time>
      </trkpt>
      <trkpt lat="59.9525413" lon="17.6758386">
        <ele>21.2864</ele>
        <time>2012-07-20T19:14:31Z</time>
      </trkpt>
      <trkpt lat="59.952787" lon="17.6765237">
        <ele>21.767</ele>
        <time>2012-07-20T19:14:38Z</time>
      </trkpt>
      <trkpt lat="59.9531191" lon="17.6773693">
        <ele>18.4023</ele>
        <time>2012-07-20T19:14:47Z</time>
      </trkpt>
      <trkpt lat="59.9534184" lon="17.6783374">
        <ele>12.6344</ele>
        <time>2012-07-20T19:14:56Z</time>
      </trkpt>
      <trkpt lat="59.953712" lon="17.6791525">
        <ele>11.6732</ele>
        <time>2012-07-20T19:15:03Z</time>
      </trkpt>
      <trkpt lat="59.9541411" lon="17.6803695">
        <ele>13.5958</ele>
        <time>2012-07-20T19:15:13Z</time>
      </trkpt>
      <trkpt lat="59.9544252" lon="17.6812294">
        <ele>14.0764</ele>
        <time>2012-07-20T19:15:20Z</time>
      </trkpt>
      <trkpt lat="59.9546197" lon="17.6817851">
        <ele>17.4412</ele>
        <time>2012-07-20T19:15:25Z</time>
      </trkpt>
      <trkpt lat="59.954764" lon="17.6820059">
        <ele>18.8831</ele>
        <time>2012-07-20T19:15:28Z</time>
      </trkpt>
      <trkpt lat="59.9549437" lon="17.6824658">
        <ele>19.3638</ele>
        <time>2012-07-20T19:15:33Z</time>
      </trkpt>
      <trkpt lat="59.9550666" lon="17.6830824">
        <ele>15.999</ele>
        <time>2012-07-20T19:15:39Z</time>
      </trkpt>
      <trkpt lat="59.9552514" lon="17.683917">
        <ele>15.5184</ele>
        <time>2012-07-20T19:15:47Z</time>
      </trkpt>
      <trkpt lat="59.9554648" lon="17.6851403">
        <ele>11.6732</ele>
        <time>2012-07-20T19:15:58Z</time>
      </trkpt>
      <trkpt lat="59.9556169" lon="17.6860749">
        <ele>15.0377</ele>
        <time>2012-07-20T19:16:06Z</time>
      </trkpt>
      <trkpt lat="59.9557266" lon="17.6868686">
        <ele>17.9218</ele>
        <time>2012-07-20T19:16:13Z</time>
      </trkpt>
      <trkpt lat="59.9558359" lon="17.6876833">
        <ele>18.4023</ele>
        <time>2012-07-20T19:16:20Z</time>
      </trkpt>
      <trkpt lat="59.9560018" lon="17.6885428">
        <ele>19.3638</ele>
        <time>2012-07-20T19:16:27Z</time>
      </trkpt>
      <trkpt lat="59.9560178" lon="17.688652">
        <ele>18.4023</ele>
        <time>2012-07-20T19:16:28Z</time>
      </trkpt>
      <trkpt lat="59.9562284" lon="17.6894233">
        <ele>15.0377</ele>
        <time>2012-07-20T19:16:36Z</time>
      </trkpt>
      <trkpt lat="59.9562918" lon="17.6897114">
        <ele>13.5958</ele>
        <time>2012-07-20T19:16:39Z</time>
      </trkpt>
      <trkpt lat="59.9564994" lon="17.6904189">
        <ele>15.5184</ele>
        <time>2012-07-20T19:16:46Z</time>
      </trkpt>
      <trkpt lat="59.9566954" lon="17.6910249">
        <ele>11.6732</ele>
        <time>2012-07-20T19:16:52Z</time>
      </trkpt>
      <trkpt lat="59.9569456" lon="17.6917741">
        <ele>8.78918</ele>
        <time>2012-07-20T19:16:58Z</time>
      </trkpt>
      <trkpt lat="59.957246" lon="17.6926135">
        <ele>13.5958</ele>
        <time>2012-07-20T19:17:05Z</time>
      </trkpt>
      <trkpt lat="59.957579" lon="17.6935431">
        <ele>15.0377</ele>
        <time>2012-07-20T19:17:13Z</time>
      </trkpt>
      <trkpt lat="59.9578953" lon="17.6944868">
        <ele>16.4797</ele>
        <time>2012-07-20T19:17:21Z</time>
      </trkpt>
      <trkpt lat="59.958142" lon="17.6951644">
        <ele>17.9218</ele>
        <time>2012-07-20T19:17:27Z</time>
      </trkpt>
      <trkpt lat="59.9585242" lon="17.6961454">
        <ele>17.9218</ele>
        <time>2012-07-20T19:17:36Z</time>
      </trkpt>
      <trkpt lat="59.9587875" lon="17.6969229">
        <ele>17.9218</ele>
        <time>2012-07-20T19:17:43Z</time>
      </trkpt>
      <trkpt lat="59.9589145" lon="17.6975707">
        <ele>20.325</ele>
        <time>2012-07-20T19:17:49Z</time>
      </trkpt>
      <trkpt lat="59.9589667" lon="17.6980514">
        <ele>20.8057</ele>
        <time>2012-07-20T19:17:55Z</time>
      </trkpt>
      <trkpt lat="59.9589807" lon="17.6982061">
        <ele>21.2864</ele>
        <time>2012-07-20T19:17:57Z</time>
      </trkpt>
      <trkpt lat="59.9589953" lon="17.6988816">
        <ele>24.651</ele>
        <time>2012-07-20T19:18:05Z</time>
      </trkpt>
      <trkpt lat="59.959034" lon="17.6996328">
        <ele>26.0929</ele>
        <time>2012-07-20T19:18:12Z</time>
      </trkpt>
      <trkpt lat="59.9591147" lon="17.7004716">
        <ele>25.1317</ele>
        <time>2012-07-20T19:18:19Z</time>
      </trkpt>
      <trkpt lat="59.9592161" lon="17.7015094">
        <ele>22.2476</ele>
        <time>2012-07-20T19:18:28Z</time>
      </trkpt>
      <trkpt lat="59.959234" lon="17.7016054">
        <ele>21.767</ele>
        <time>2012-07-20T19:18:29Z</time>
      </trkpt>
      <trkpt lat="59.9594307" lon="17.7023755">
        <ele>22.2476</ele>
        <time>2012-07-20T19:18:36Z</time>
      </trkpt>
      <trkpt lat="59.9596806" lon="17.703204">
        <ele>21.2864</ele>
        <time>2012-07-20T19:18:44Z</time>
      </trkpt>
      <trkpt lat="59.9599966" lon="17.7040835">
        <ele>21.767</ele>
        <time>2012-07-20T19:18:52Z</time>
      </trkpt>
      <trkpt lat="59.9601825" lon="17.7044197">
        <ele>20.8057</ele>
        <time>2012-07-20T19:18:56Z</time>
      </trkpt>
      <trkpt lat="59.960772" lon="17.7051677">
        <ele>25.6123</ele>
        <time>2012-07-20T19:19:06Z</time>
      </trkpt>
      <trkpt lat="59.9611539" lon="17.7057677">
        <ele>25.1317</ele>
        <time>2012-07-20T19:19:13Z</time>
      </trkpt>
      <trkpt lat="59.9616015" lon="17.7065508">
        <ele>23.6896</ele>
        <time>2012-07-20T19:19:22Z</time>
      </trkpt>
      <trkpt lat="59.9619426" lon="17.706858">
        <ele>25.1317</ele>
        <time>2012-07-20T19:19:28Z</time>
      </trkpt>
      <trkpt lat="59.962402" lon="17.7071272">
        <ele>25.1317</ele>
        <time>2012-07-20T19:19:35Z</time>
      </trkpt>
      <trkpt lat="59.9628252" lon="17.7072461">
        <ele>25.6123</ele>
        <time>2012-07-20T19:19:41Z</time>
      </trkpt>
      <trkpt lat="59.9632674" lon="17.7072411">
        <ele>27.0543</ele>
        <time>2012-07-20T19:19:47Z</time>
      </trkpt>
      <trkpt lat="59.9637071" lon="17.7072877">
        <ele>30.8995</ele>
        <time>2012-07-20T19:19:54Z</time>
      </trkpt>
      <trkpt lat="59.9641133" lon="17.707329">
        <ele>27.5349</ele>
        <time>2012-07-20T19:20:01Z</time>
      </trkpt>
      <trkpt lat="59.9644378" lon="17.707448">
        <ele>26.0929</ele>
        <time>2012-07-20T19:20:06Z</time>
      </trkpt>
      <trkpt lat="59.9648342" lon="17.7076983">
        <ele>24.1703</ele>
        <time>2012-07-20T19:20:12Z</time>
      </trkpt>
      <trkpt lat="59.9653174" lon="17.7081008">
        <ele>23.209</ele>
        <time>2012-07-20T19:20:19Z</time>
      </trkpt>
      <trkpt lat="59.9656759" lon="17.7085251">
        <ele>23.6896</ele>
        <time>2012-07-20T19:20:25Z</time>
      </trkpt>
      <trkpt lat="59.9658697" lon="17.7089879">
        <ele>18.4023</ele>
        <time>2012-07-20T19:20:30Z</time>
      </trkpt>
      <trkpt lat="59.9660564" lon="17.7096312">
        <ele>15.5184</ele>
        <time>2012-07-20T19:20:36Z</time>
      </trkpt>
      <trkpt lat="59.9662303" lon="17.710293">
        <ele>14.557</ele>
        <time>2012-07-20T19:20:42Z</time>
      </trkpt>
      <trkpt lat="59.966578" lon="17.7114755">
        <ele>15.5184</ele>
        <time>2012-07-20T19:20:53Z</time>
      </trkpt>
      <trkpt lat="59.9668479" lon="17.7121886">
        <ele>18.4023</ele>
        <time>2012-07-20T19:21:00Z</time>
      </trkpt>
      <trkpt lat="59.9670985" lon="17.7129576">
        <ele>15.999</ele>
        <time>2012-07-20T19:21:07Z</time>
      </trkpt>
      <trkpt lat="59.9672378" lon="17.7137428">
        <ele>13.1151</ele>
        <time>2012-07-20T19:21:13Z</time>
      </trkpt>
      <trkpt lat="59.9673843" lon="17.7148549">
        <ele>9.75061</ele>
        <time>2012-07-20T19:21:20Z</time>
      </trkpt>
      <trkpt lat="59.9674512" lon="17.7153288">
        <ele>8.30859</ele>
        <time>2012-07-20T19:21:23Z</time>
      </trkpt>
      <trkpt lat="59.9676352" lon="17.7160043">
        <ele>10.2312</ele>
        <time>2012-07-20T19:21:29Z</time>
      </trkpt>
      <trkpt lat="59.9678211" lon="17.7164179">
        <ele>13.1151</ele>
        <time>2012-07-20T19:21:34Z</time>
      </trkpt>
      <trkpt lat="59.9680455" lon="17.7167669">
        <ele>15.999</ele>
        <time>2012-07-20T19:21:41Z</time>
      </trkpt>
      <trkpt lat="59.9682764" lon="17.7170258">
        <ele>17.9218</ele>
        <time>2012-07-20T19:21:48Z</time>
      </trkpt>
      <trkpt lat="59.9685493" lon="17.7172473">
        <ele>18.8831</ele>
        <time>2012-07-20T19:21:56Z</time>
      </trkpt>
      <trkpt lat="59.9688774" lon="17.7173911">
        <ele>21.2864</ele>
        <time>2012-07-20T19:22:04Z</time>
      </trkpt>
      <trkpt lat="59.9692843" lon="17.7175631">
        <ele>22.2476</ele>
        <time>2012-07-20T19:22:12Z</time>
      </trkpt>
      <trkpt lat="59.9697072" lon="17.7178316">
        <ele>22.7283</ele>
        <time>2012-07-20T19:22:19Z</time>
      </trkpt>
      <trkpt lat="59.9702426" lon="17.7183033">
        <ele>23.209</ele>
        <time>2012-07-20T19:22:27Z</time>
      </trkpt>
      <trkpt lat="59.9710012" lon="17.7189893">
        <ele>23.209</ele>
        <time>2012-07-20T19:22:38Z</time>
      </trkpt>
      <trkpt lat="59.971559" lon="17.7194923">
        <ele>23.209</ele>
        <time>2012-07-20T19:22:46Z</time>
      </trkpt>
      <trkpt lat="59.9719957" lon="17.719874">
        <ele>22.7283</ele>
        <time>2012-07-20T19:22:53Z</time>
      </trkpt>
      <trkpt lat="59.9724558" lon="17.7202958">
        <ele>21.767</ele>
        <time>2012-07-20T19:23:01Z</time>
      </trkpt>
      <trkpt lat="59.9729884" lon="17.7208767">
        <ele>20.8057</ele>
        <time>2012-07-20T19:23:10Z</time>
      </trkpt>
      <trkpt lat="59.9733193" lon="17.7214115">
        <ele>20.325</ele>
        <time>2012-07-20T19:23:16Z</time>
      </trkpt>
      <trkpt lat="59.9736571" lon="17.7221859">
        <ele>19.3638</ele>
        <time>2012-07-20T19:23:23Z</time>
      </trkpt>
      <trkpt lat="59.9739459" lon="17.7232224">
        <ele>16.4797</ele>
        <time>2012-07-20T19:23:31Z</time>
      </trkpt>
      <trkpt lat="59.9740912" lon="17.7241265">
        <ele>14.0764</ele>
        <time>2012-07-20T19:23:38Z</time>
      </trkpt>
      <trkpt lat="59.9742684" lon="17.7254987">
        <ele>13.5958</ele>
        <time>2012-07-20T19:23:49Z</time>
      </trkpt>
      <trkpt lat="59.9743164" lon="17.7264028">
        <ele>13.5958</ele>
        <time>2012-07-20T19:23:56Z</time>
      </trkpt>
      <trkpt lat="59.9743271" lon="17.7273401">
        <ele>14.0764</ele>
        <time>2012-07-20T19:24:03Z</time>
      </trkpt>
      <trkpt lat="59.9743558" lon="17.7283011">
        <ele>14.0764</ele>
        <time>2012-07-20T19:24:10Z</time>
      </trkpt>
      <trkpt lat="59.9743828" lon="17.7291402">
        <ele>15.0377</ele>
        <time>2012-07-20T19:24:17Z</time>
      </trkpt>
      <trkpt lat="59.9743704" lon="17.7299726">
        <ele>17.4412</ele>
        <time>2012-07-20T19:24:24Z</time>
      </trkpt>
      <trkpt lat="59.9742733" lon="17.7309988">
        <ele>16.9604</ele>
        <time>2012-07-20T19:24:33Z</time>
      </trkpt>
      <trkpt lat="59.9742564" lon="17.7321177">
        <ele>15.5184</ele>
        <time>2012-07-20T19:24:42Z</time>
      </trkpt>
      <trkpt lat="59.9742697" lon="17.7332354">
        <ele>18.8831</ele>
        <time>2012-07-20T19:24:50Z</time>
      </trkpt>
      <trkpt lat="59.974231" lon="17.7342488">
        <ele>19.3638</ele>
        <time>2012-07-20T19:24:58Z</time>
      </trkpt>
      <trkpt lat="59.9742295" lon="17.7349404">
        <ele>17.9218</ele>
        <time>2012-07-20T19:25:05Z</time>
      </trkpt>
      <trkpt lat="59.9742862" lon="17.7355557">
        <ele>15.999</ele>
        <time>2012-07-20T19:25:12Z</time>
      </trkpt>
      <trkpt lat="59.9744729" lon="17.736443">
        <ele>16.4797</ele>
        <time>2012-07-20T19:25:21Z</time>
      </trkpt>
      <trkpt lat="59.9747354" lon="17.7372263">
        <ele>19.3638</ele>
        <time>2012-07-20T19:25:29Z</time>
      </trkpt>
      <trkpt lat="59.9750187" lon="17.7377898">
        <ele>18.8831</ele>
        <time>2012-07-20T19:25:36Z</time>
      </trkpt>
      <trkpt lat="59.9753758" lon="17.7384171">
        <ele>17.9218</ele>
        <time>2012-07-20T19:25:44Z</time>
      </trkpt>
      <trkpt lat="59.9757451" lon="17.7390699">
        <ele>17.9218</ele>
        <time>2012-07-20T19:25:52Z</time>
      </trkpt>
      <trkpt lat="59.9760456" lon="17.7395996">
        <ele>18.4023</ele>
        <time>2012-07-20T19:26:00Z</time>
      </trkpt>
      <trkpt lat="59.9761417" lon="17.7397251">
        <ele>18.8831</ele>
        <time>2012-07-20T19:26:03Z</time>
      </trkpt>
      <trkpt lat="59.976236" lon="17.7397883">
        <ele>20.325</ele>
        <time>2012-07-20T19:26:06Z</time>
      </trkpt>
      <trkpt lat="59.9764242" lon="17.7397054">
        <ele>20.8057</ele>
        <time>2012-07-20T19:26:12Z</time>
      </trkpt>
      <trkpt lat="59.9767695" lon="17.7394682">
        <ele>21.2864</ele>
        <time>2012-07-20T19:26:21Z</time>
      </trkpt>
      <trkpt lat="59.9769304" lon="17.7393863">
        <ele>21.767</ele>
        <time>2012-07-20T19:26:25Z</time>
      </trkpt>
      <trkpt lat="59.9772021" lon="17.7392451">
        <ele>20.325</ele>
        <time>2012-07-20T19:26:32Z</time>
      </trkpt>
      <trkpt lat="59.9773627" lon="17.73915">
        <ele>20.8057</ele>
        <time>2012-07-20T19:26:36Z</time>
      </trkpt>
      <trkpt lat="59.9774908" lon="17.7391031">
        <ele>22.7283</ele>
        <time>2012-07-20T19:26:39Z</time>
      </trkpt>
      <trkpt lat="59.9776556" lon="17.7390827">
        <ele>23.209</ele>
        <time>2012-07-20T19:26:44Z</time>
      </trkpt>
      <trkpt lat="59.9776887" lon="17.739091">
        <ele>23.6896</ele>
        <time>2012-07-20T19:26:45Z</time>
      </trkpt>
      <trkpt lat="59.9779037" lon="17.7391683">
        <ele>28.9769</ele>
        <time>2012-07-20T19:26:51Z</time>
      </trkpt>
      <trkpt lat="59.9782176" lon="17.739314">
        <ele>33.3029</ele>
        <time>2012-07-20T19:26:58Z</time>
      </trkpt>
      <trkpt lat="59.9786753" lon="17.7394139">
        <ele>35.7061</ele>
        <time>2012-07-20T19:27:07Z</time>
      </trkpt>
      <trkpt lat="59.9787775" lon="17.7394218">
        <ele>36.1868</ele>
        <time>2012-07-20T19:27:09Z</time>
      </trkpt>
    </trkseg>
  </trk>
</gpx>